<?xml version="1.0" encoding="UTF-8" standalone="no" ?>
<gpx xmlns="http://www.topografix.com/GPX/1/1" xmlns:xsi="http://www.w3.org/2001/XMLSchema-instance" xsi:schemaLocation="http://www.topografix.com/GPX/1/1 http://www.topografix.com/GPX/1/1/gpx.xsd" version="1.1" creator="VisuGPX - https://www.visugpx.com">
  <metadata>
    <name>LORGUES ESTELLO 10 NOVEMBRE 2015</name>
    <desc><![CDATA[Marche de 6.74 km à partir du domaine de l\'Estello à Lorgues.]]></desc>
  </metadata>
  <trk>
    <name><![CDATA[Tracé actuel: 10 NOV 2015 13:48]]></name>
    <trkseg>
      <trkpt lat="43.48228" lon="6.34341">
        <ele>41.95</ele>
        <time>2015-11-10T12:48:20Z</time>
      </trkpt>
      <trkpt lat="43.48227" lon="6.34339">
        <ele>43.88</ele>
        <time>2015-11-10T12:48:21Z</time>
      </trkpt>
      <trkpt lat="43.48222" lon="6.34327">
        <ele>42.44</ele>
        <time>2015-11-10T12:48:30Z</time>
      </trkpt>
      <trkpt lat="43.48222" lon="6.34326">
        <ele>45.32</ele>
        <time>2015-11-10T12:48:31Z</time>
      </trkpt>
      <trkpt lat="43.48219" lon="6.34322">
        <ele>44.36</ele>
        <time>2015-11-10T12:48:35Z</time>
      </trkpt>
      <trkpt lat="43.48216" lon="6.34315">
        <ele>44.84</ele>
        <time>2015-11-10T12:48:37Z</time>
      </trkpt>
      <trkpt lat="43.4821" lon="6.34306">
        <ele>46.28</ele>
        <time>2015-11-10T12:48:45Z</time>
      </trkpt>
      <trkpt lat="43.48206" lon="6.34302">
        <ele>45.32</ele>
        <time>2015-11-10T12:48:52Z</time>
      </trkpt>
      <trkpt lat="43.48206" lon="6.34301">
        <ele>49.16</ele>
        <time>2015-11-10T12:48:53Z</time>
      </trkpt>
      <trkpt lat="43.48206" lon="6.343">
        <ele>47.24</ele>
        <time>2015-11-10T12:48:54Z</time>
      </trkpt>
      <trkpt lat="43.48204" lon="6.34295">
        <ele>48.68</ele>
        <time>2015-11-10T12:48:57Z</time>
      </trkpt>
      <trkpt lat="43.48201" lon="6.34287">
        <ele>48.68</ele>
        <time>2015-11-10T12:49:03Z</time>
      </trkpt>
      <trkpt lat="43.4819" lon="6.3426">
        <ele>51.57</ele>
        <time>2015-11-10T12:49:19Z</time>
      </trkpt>
      <trkpt lat="43.48186" lon="6.34253">
        <ele>53.49</ele>
        <time>2015-11-10T12:49:32Z</time>
      </trkpt>
      <trkpt lat="43.48182" lon="6.34251">
        <ele>55.89</ele>
        <time>2015-11-10T12:49:47Z</time>
      </trkpt>
      <trkpt lat="43.48179" lon="6.34246">
        <ele>56.86</ele>
        <time>2015-11-10T12:49:55Z</time>
      </trkpt>
      <trkpt lat="43.48177" lon="6.34243">
        <ele>56.86</ele>
        <time>2015-11-10T12:49:57Z</time>
      </trkpt>
      <trkpt lat="43.48175" lon="6.34241">
        <ele>57.34</ele>
        <time>2015-11-10T12:49:59Z</time>
      </trkpt>
      <trkpt lat="43.48173" lon="6.34236">
        <ele>57.82</ele>
        <time>2015-11-10T12:50:02Z</time>
      </trkpt>
      <trkpt lat="43.48164" lon="6.34211">
        <ele>59.26</ele>
        <time>2015-11-10T12:50:12Z</time>
      </trkpt>
      <trkpt lat="43.4816" lon="6.34202">
        <ele>60.22</ele>
        <time>2015-11-10T12:50:16Z</time>
      </trkpt>
      <trkpt lat="43.4816" lon="6.342">
        <ele>60.22</ele>
        <time>2015-11-10T12:50:17Z</time>
      </trkpt>
      <trkpt lat="43.48157" lon="6.34194">
        <ele>60.22</ele>
        <time>2015-11-10T12:50:20Z</time>
      </trkpt>
      <trkpt lat="43.48152" lon="6.34184">
        <ele>61.18</ele>
        <time>2015-11-10T12:50:27Z</time>
      </trkpt>
      <trkpt lat="43.48152" lon="6.34179">
        <ele>61.66</ele>
        <time>2015-11-10T12:50:30Z</time>
      </trkpt>
      <trkpt lat="43.4815" lon="6.34175">
        <ele>62.14</ele>
        <time>2015-11-10T12:50:33Z</time>
      </trkpt>
      <trkpt lat="43.48151" lon="6.34173">
        <ele>62.62</ele>
        <time>2015-11-10T12:50:34Z</time>
      </trkpt>
      <trkpt lat="43.48138" lon="6.34169">
        <ele>65.03</ele>
        <time>2015-11-10T12:50:49Z</time>
      </trkpt>
      <trkpt lat="43.48133" lon="6.34155">
        <ele>65.99</ele>
        <time>2015-11-10T12:50:56Z</time>
      </trkpt>
      <trkpt lat="43.4813" lon="6.34151">
        <ele>66.95</ele>
        <time>2015-11-10T12:51:01Z</time>
      </trkpt>
      <trkpt lat="43.48129" lon="6.34147">
        <ele>67.43</ele>
        <time>2015-11-10T12:51:04Z</time>
      </trkpt>
      <trkpt lat="43.48117" lon="6.34141">
        <ele>69.83</ele>
        <time>2015-11-10T12:51:18Z</time>
      </trkpt>
      <trkpt lat="43.48112" lon="6.34139">
        <ele>71.76</ele>
        <time>2015-11-10T12:51:29Z</time>
      </trkpt>
      <trkpt lat="43.4811" lon="6.34137">
        <ele>71.76</ele>
        <time>2015-11-10T12:51:30Z</time>
      </trkpt>
      <trkpt lat="43.48106" lon="6.34136">
        <ele>72.72</ele>
        <time>2015-11-10T12:51:34Z</time>
      </trkpt>
      <trkpt lat="43.48103" lon="6.34136">
        <ele>73.2</ele>
        <time>2015-11-10T12:51:37Z</time>
      </trkpt>
      <trkpt lat="43.48101" lon="6.34136">
        <ele>73.68</ele>
        <time>2015-11-10T12:51:39Z</time>
      </trkpt>
      <trkpt lat="43.48092" lon="6.34155">
        <ele>75.6</ele>
        <time>2015-11-10T12:51:52Z</time>
      </trkpt>
      <trkpt lat="43.48089" lon="6.34158">
        <ele>75.6</ele>
        <time>2015-11-10T12:51:55Z</time>
      </trkpt>
      <trkpt lat="43.48087" lon="6.3416">
        <ele>76.08</ele>
        <time>2015-11-10T12:51:58Z</time>
      </trkpt>
      <trkpt lat="43.48083" lon="6.3416">
        <ele>76.56</ele>
        <time>2015-11-10T12:52:02Z</time>
      </trkpt>
      <trkpt lat="43.48078" lon="6.3416">
        <ele>77.04</ele>
        <time>2015-11-10T12:52:09Z</time>
      </trkpt>
      <trkpt lat="43.48076" lon="6.34155">
        <ele>78.48</ele>
        <time>2015-11-10T12:52:24Z</time>
      </trkpt>
      <trkpt lat="43.48075" lon="6.34143">
        <ele>80.41</ele>
        <time>2015-11-10T12:52:39Z</time>
      </trkpt>
      <trkpt lat="43.48071" lon="6.34131">
        <ele>81.37</ele>
        <time>2015-11-10T12:52:52Z</time>
      </trkpt>
      <trkpt lat="43.48065" lon="6.34116">
        <ele>82.33</ele>
        <time>2015-11-10T12:53:02Z</time>
      </trkpt>
      <trkpt lat="43.48055" lon="6.34103">
        <ele>82.81</ele>
        <time>2015-11-10T12:53:15Z</time>
      </trkpt>
      <trkpt lat="43.48054" lon="6.341">
        <ele>82.81</ele>
        <time>2015-11-10T12:53:16Z</time>
      </trkpt>
      <trkpt lat="43.4805" lon="6.3409">
        <ele>83.29</ele>
        <time>2015-11-10T12:53:21Z</time>
      </trkpt>
      <trkpt lat="43.48038" lon="6.34065">
        <ele>82.81</ele>
        <time>2015-11-10T12:53:35Z</time>
      </trkpt>
      <trkpt lat="43.48034" lon="6.34052">
        <ele>82.81</ele>
        <time>2015-11-10T12:53:49Z</time>
      </trkpt>
      <trkpt lat="43.48037" lon="6.3409">
        <ele>82.81</ele>
        <time>2015-11-10T12:54:10Z</time>
      </trkpt>
      <trkpt lat="43.48029" lon="6.34098">
        <ele>82.81</ele>
        <time>2015-11-10T12:54:32Z</time>
      </trkpt>
      <trkpt lat="43.48015" lon="6.341">
        <ele>82.81</ele>
        <time>2015-11-10T12:55:01Z</time>
      </trkpt>
      <trkpt lat="43.48014" lon="6.34103">
        <ele>86.66</ele>
        <time>2015-11-10T12:55:09Z</time>
      </trkpt>
      <trkpt lat="43.48014" lon="6.34102">
        <ele>90.5</ele>
        <time>2015-11-10T12:55:10Z</time>
      </trkpt>
      <trkpt lat="43.48014" lon="6.34102">
        <ele>93.87</ele>
        <time>2015-11-10T12:55:11Z</time>
      </trkpt>
      <trkpt lat="43.48014" lon="6.34102">
        <ele>97.23</ele>
        <time>2015-11-10T12:55:12Z</time>
      </trkpt>
      <trkpt lat="43.48013" lon="6.34102">
        <ele>100.11</ele>
        <time>2015-11-10T12:55:13Z</time>
      </trkpt>
      <trkpt lat="43.48013" lon="6.34102">
        <ele>103.48</ele>
        <time>2015-11-10T12:55:14Z</time>
      </trkpt>
      <trkpt lat="43.48013" lon="6.34102">
        <ele>106.36</ele>
        <time>2015-11-10T12:55:15Z</time>
      </trkpt>
      <trkpt lat="43.48013" lon="6.34103">
        <ele>112.13</ele>
        <time>2015-11-10T12:55:17Z</time>
      </trkpt>
      <trkpt lat="43.48012" lon="6.34102">
        <ele>117.42</ele>
        <time>2015-11-10T12:55:19Z</time>
      </trkpt>
      <trkpt lat="43.4801" lon="6.34102">
        <ele>122.22</ele>
        <time>2015-11-10T12:55:21Z</time>
      </trkpt>
      <trkpt lat="43.48007" lon="6.34101">
        <ele>127.03</ele>
        <time>2015-11-10T12:55:23Z</time>
      </trkpt>
      <trkpt lat="43.48007" lon="6.34101">
        <ele>131.36</ele>
        <time>2015-11-10T12:55:25Z</time>
      </trkpt>
      <trkpt lat="43.48007" lon="6.34101">
        <ele>136.16</ele>
        <time>2015-11-10T12:55:27Z</time>
      </trkpt>
      <trkpt lat="43.48007" lon="6.34101">
        <ele>140.01</ele>
        <time>2015-11-10T12:55:29Z</time>
      </trkpt>
      <trkpt lat="43.48007" lon="6.34101">
        <ele>143.37</ele>
        <time>2015-11-10T12:55:31Z</time>
      </trkpt>
      <trkpt lat="43.48006" lon="6.34101">
        <ele>147.22</ele>
        <time>2015-11-10T12:55:33Z</time>
      </trkpt>
      <trkpt lat="43.48006" lon="6.34101">
        <ele>150.58</ele>
        <time>2015-11-10T12:55:35Z</time>
      </trkpt>
      <trkpt lat="43.48006" lon="6.34101">
        <ele>153.47</ele>
        <time>2015-11-10T12:55:37Z</time>
      </trkpt>
      <trkpt lat="43.48008" lon="6.34102">
        <ele>156.83</ele>
        <time>2015-11-10T12:55:39Z</time>
      </trkpt>
      <trkpt lat="43.48009" lon="6.34102">
        <ele>160.68</ele>
        <time>2015-11-10T12:55:42Z</time>
      </trkpt>
      <trkpt lat="43.48009" lon="6.34102">
        <ele>164.04</ele>
        <time>2015-11-10T12:55:45Z</time>
      </trkpt>
      <trkpt lat="43.48009" lon="6.34102">
        <ele>167.41</ele>
        <time>2015-11-10T12:55:48Z</time>
      </trkpt>
      <trkpt lat="43.48009" lon="6.34102">
        <ele>170.77</ele>
        <time>2015-11-10T12:55:51Z</time>
      </trkpt>
      <trkpt lat="43.48009" lon="6.34099">
        <ele>174.62</ele>
        <time>2015-11-10T12:55:55Z</time>
      </trkpt>
      <trkpt lat="43.48009" lon="6.34098">
        <ele>177.5</ele>
        <time>2015-11-10T12:55:59Z</time>
      </trkpt>
      <trkpt lat="43.48009" lon="6.34098">
        <ele>180.38</ele>
        <time>2015-11-10T12:56:03Z</time>
      </trkpt>
      <trkpt lat="43.48009" lon="6.34098">
        <ele>183.75</ele>
        <time>2015-11-10T12:56:08Z</time>
      </trkpt>
      <trkpt lat="43.48006" lon="6.34093">
        <ele>187.11</ele>
        <time>2015-11-10T12:56:15Z</time>
      </trkpt>
      <trkpt lat="43.48002" lon="6.34086">
        <ele>189.52</ele>
        <time>2015-11-10T12:56:20Z</time>
      </trkpt>
      <trkpt lat="43.47992" lon="6.34077">
        <ele>192.88</ele>
        <time>2015-11-10T12:56:30Z</time>
      </trkpt>
      <trkpt lat="43.47985" lon="6.34062">
        <ele>196.25</ele>
        <time>2015-11-10T12:56:43Z</time>
      </trkpt>
      <trkpt lat="43.47984" lon="6.34059">
        <ele>196.25</ele>
        <time>2015-11-10T12:56:45Z</time>
      </trkpt>
      <trkpt lat="43.4798" lon="6.34047">
        <ele>197.21</ele>
        <time>2015-11-10T12:56:54Z</time>
      </trkpt>
      <trkpt lat="43.47974" lon="6.34036">
        <ele>198.17</ele>
        <time>2015-11-10T12:57:02Z</time>
      </trkpt>
      <trkpt lat="43.47968" lon="6.34023">
        <ele>198.65</ele>
        <time>2015-11-10T12:57:11Z</time>
      </trkpt>
      <trkpt lat="43.47967" lon="6.3402">
        <ele>198.17</ele>
        <time>2015-11-10T12:57:13Z</time>
      </trkpt>
      <trkpt lat="43.47949" lon="6.33997">
        <ele>196.73</ele>
        <time>2015-11-10T12:57:31Z</time>
      </trkpt>
      <trkpt lat="43.47936" lon="6.3398">
        <ele>194.8</ele>
        <time>2015-11-10T12:57:47Z</time>
      </trkpt>
      <trkpt lat="43.47919" lon="6.33969">
        <ele>192.88</ele>
        <time>2015-11-10T12:58:00Z</time>
      </trkpt>
      <trkpt lat="43.47909" lon="6.33965">
        <ele>190.96</ele>
        <time>2015-11-10T12:58:08Z</time>
      </trkpt>
      <trkpt lat="43.47893" lon="6.33961">
        <ele>188.08</ele>
        <time>2015-11-10T12:58:22Z</time>
      </trkpt>
      <trkpt lat="43.47892" lon="6.33962">
        <ele>188.08</ele>
        <time>2015-11-10T12:58:23Z</time>
      </trkpt>
      <trkpt lat="43.47881" lon="6.33962">
        <ele>185.19</ele>
        <time>2015-11-10T12:58:35Z</time>
      </trkpt>
      <trkpt lat="43.47876" lon="6.33963">
        <ele>184.71</ele>
        <time>2015-11-10T12:58:38Z</time>
      </trkpt>
      <trkpt lat="43.47865" lon="6.33963">
        <ele>183.27</ele>
        <time>2015-11-10T12:58:47Z</time>
      </trkpt>
      <trkpt lat="43.47851" lon="6.33962">
        <ele>181.83</ele>
        <time>2015-11-10T12:58:58Z</time>
      </trkpt>
      <trkpt lat="43.47847" lon="6.33962">
        <ele>181.35</ele>
        <time>2015-11-10T12:59:01Z</time>
      </trkpt>
      <trkpt lat="43.47832" lon="6.33958">
        <ele>179.9</ele>
        <time>2015-11-10T12:59:14Z</time>
      </trkpt>
      <trkpt lat="43.4782" lon="6.33952">
        <ele>178.94</ele>
        <time>2015-11-10T12:59:24Z</time>
      </trkpt>
      <trkpt lat="43.47815" lon="6.33949">
        <ele>178.46</ele>
        <time>2015-11-10T12:59:28Z</time>
      </trkpt>
      <trkpt lat="43.47806" lon="6.33944">
        <ele>177.98</ele>
        <time>2015-11-10T12:59:36Z</time>
      </trkpt>
      <trkpt lat="43.47798" lon="6.33938">
        <ele>177.02</ele>
        <time>2015-11-10T12:59:44Z</time>
      </trkpt>
      <trkpt lat="43.4778" lon="6.33935">
        <ele>175.1</ele>
        <time>2015-11-10T12:59:57Z</time>
      </trkpt>
      <trkpt lat="43.47764" lon="6.33931">
        <ele>172.69</ele>
        <time>2015-11-10T13:00:11Z</time>
      </trkpt>
      <trkpt lat="43.47753" lon="6.33925">
        <ele>171.25</ele>
        <time>2015-11-10T13:00:23Z</time>
      </trkpt>
      <trkpt lat="43.4774" lon="6.33912">
        <ele>168.37</ele>
        <time>2015-11-10T13:00:36Z</time>
      </trkpt>
      <trkpt lat="43.47729" lon="6.33901">
        <ele>166.93</ele>
        <time>2015-11-10T13:00:47Z</time>
      </trkpt>
      <trkpt lat="43.47724" lon="6.33894">
        <ele>165.48</ele>
        <time>2015-11-10T13:00:54Z</time>
      </trkpt>
      <trkpt lat="43.47718" lon="6.33886">
        <ele>164.04</ele>
        <time>2015-11-10T13:01:02Z</time>
      </trkpt>
      <trkpt lat="43.47709" lon="6.33878">
        <ele>162.6</ele>
        <time>2015-11-10T13:01:11Z</time>
      </trkpt>
      <trkpt lat="43.47705" lon="6.33873">
        <ele>162.12</ele>
        <time>2015-11-10T13:01:14Z</time>
      </trkpt>
      <trkpt lat="43.47698" lon="6.33873">
        <ele>161.16</ele>
        <time>2015-11-10T13:01:19Z</time>
      </trkpt>
      <trkpt lat="43.47694" lon="6.33872">
        <ele>160.68</ele>
        <time>2015-11-10T13:01:22Z</time>
      </trkpt>
      <trkpt lat="43.47676" lon="6.33863">
        <ele>159.72</ele>
        <time>2015-11-10T13:01:36Z</time>
      </trkpt>
      <trkpt lat="43.4767" lon="6.33862">
        <ele>159.24</ele>
        <time>2015-11-10T13:01:42Z</time>
      </trkpt>
      <trkpt lat="43.47655" lon="6.33851">
        <ele>157.31</ele>
        <time>2015-11-10T13:01:56Z</time>
      </trkpt>
      <trkpt lat="43.47645" lon="6.33842">
        <ele>155.39</ele>
        <time>2015-11-10T13:02:07Z</time>
      </trkpt>
      <trkpt lat="43.47639" lon="6.33838">
        <ele>154.43</ele>
        <time>2015-11-10T13:02:11Z</time>
      </trkpt>
      <trkpt lat="43.47627" lon="6.33834">
        <ele>152.51</ele>
        <time>2015-11-10T13:02:21Z</time>
      </trkpt>
      <trkpt lat="43.47611" lon="6.33837">
        <ele>150.58</ele>
        <time>2015-11-10T13:02:35Z</time>
      </trkpt>
      <trkpt lat="43.47607" lon="6.33837">
        <ele>149.62</ele>
        <time>2015-11-10T13:02:39Z</time>
      </trkpt>
      <trkpt lat="43.47597" lon="6.33838">
        <ele>148.66</ele>
        <time>2015-11-10T13:02:47Z</time>
      </trkpt>
      <trkpt lat="43.47584" lon="6.33831">
        <ele>148.18</ele>
        <time>2015-11-10T13:03:02Z</time>
      </trkpt>
      <trkpt lat="43.47583" lon="6.33831">
        <ele>148.18</ele>
        <time>2015-11-10T13:03:03Z</time>
      </trkpt>
      <trkpt lat="43.47578" lon="6.33826">
        <ele>148.66</ele>
        <time>2015-11-10T13:03:12Z</time>
      </trkpt>
      <trkpt lat="43.47574" lon="6.33819">
        <ele>149.62</ele>
        <time>2015-11-10T13:03:19Z</time>
      </trkpt>
      <trkpt lat="43.47569" lon="6.33816">
        <ele>150.1</ele>
        <time>2015-11-10T13:03:24Z</time>
      </trkpt>
      <trkpt lat="43.47558" lon="6.33807">
        <ele>151.54</ele>
        <time>2015-11-10T13:03:36Z</time>
      </trkpt>
      <trkpt lat="43.47552" lon="6.33806">
        <ele>151.54</ele>
        <time>2015-11-10T13:03:50Z</time>
      </trkpt>
      <trkpt lat="43.47551" lon="6.33803">
        <ele>151.54</ele>
        <time>2015-11-10T13:04:07Z</time>
      </trkpt>
      <trkpt lat="43.4755" lon="6.33804">
        <ele>151.54</ele>
        <time>2015-11-10T13:04:18Z</time>
      </trkpt>
      <trkpt lat="43.47549" lon="6.33804">
        <ele>152.03</ele>
        <time>2015-11-10T13:04:31Z</time>
      </trkpt>
      <trkpt lat="43.47548" lon="6.33804">
        <ele>152.03</ele>
        <time>2015-11-10T13:04:54Z</time>
      </trkpt>
      <trkpt lat="43.47547" lon="6.33805">
        <ele>152.03</ele>
        <time>2015-11-10T13:05:19Z</time>
      </trkpt>
      <trkpt lat="43.47548" lon="6.33807">
        <ele>151.54</ele>
        <time>2015-11-10T13:05:35Z</time>
      </trkpt>
      <trkpt lat="43.47552" lon="6.33812">
        <ele>151.54</ele>
        <time>2015-11-10T13:05:46Z</time>
      </trkpt>
      <trkpt lat="43.47554" lon="6.3381">
        <ele>150.1</ele>
        <time>2015-11-10T13:06:10Z</time>
      </trkpt>
      <trkpt lat="43.47552" lon="6.33809">
        <ele>151.54</ele>
        <time>2015-11-10T13:06:24Z</time>
      </trkpt>
      <trkpt lat="43.47549" lon="6.33804">
        <ele>151.54</ele>
        <time>2015-11-10T13:06:36Z</time>
      </trkpt>
      <trkpt lat="43.47548" lon="6.33807">
        <ele>151.54</ele>
        <time>2015-11-10T13:06:52Z</time>
      </trkpt>
      <trkpt lat="43.47548" lon="6.33806">
        <ele>151.54</ele>
        <time>2015-11-10T13:07:01Z</time>
      </trkpt>
      <trkpt lat="43.47532" lon="6.33791">
        <ele>151.54</ele>
        <time>2015-11-10T13:07:15Z</time>
      </trkpt>
      <trkpt lat="43.47526" lon="6.33785">
        <ele>151.54</ele>
        <time>2015-11-10T13:07:21Z</time>
      </trkpt>
      <trkpt lat="43.4752" lon="6.33765">
        <ele>152.03</ele>
        <time>2015-11-10T13:07:36Z</time>
      </trkpt>
      <trkpt lat="43.4752" lon="6.33746">
        <ele>152.99</ele>
        <time>2015-11-10T13:07:50Z</time>
      </trkpt>
      <trkpt lat="43.47506" lon="6.33725">
        <ele>154.43</ele>
        <time>2015-11-10T13:08:05Z</time>
      </trkpt>
      <trkpt lat="43.475" lon="6.33717">
        <ele>154.91</ele>
        <time>2015-11-10T13:08:13Z</time>
      </trkpt>
      <trkpt lat="43.47497" lon="6.3371">
        <ele>155.87</ele>
        <time>2015-11-10T13:08:20Z</time>
      </trkpt>
      <trkpt lat="43.47487" lon="6.33692">
        <ele>156.35</ele>
        <time>2015-11-10T13:08:35Z</time>
      </trkpt>
      <trkpt lat="43.4748" lon="6.33682">
        <ele>156.83</ele>
        <time>2015-11-10T13:08:46Z</time>
      </trkpt>
      <trkpt lat="43.47465" lon="6.33659">
        <ele>157.31</ele>
        <time>2015-11-10T13:09:02Z</time>
      </trkpt>
      <trkpt lat="43.4746" lon="6.33652">
        <ele>157.79</ele>
        <time>2015-11-10T13:09:07Z</time>
      </trkpt>
      <trkpt lat="43.47441" lon="6.33642">
        <ele>157.31</ele>
        <time>2015-11-10T13:09:21Z</time>
      </trkpt>
      <trkpt lat="43.47424" lon="6.33642">
        <ele>155.39</ele>
        <time>2015-11-10T13:09:35Z</time>
      </trkpt>
      <trkpt lat="43.4742" lon="6.33644">
        <ele>154.91</ele>
        <time>2015-11-10T13:09:39Z</time>
      </trkpt>
      <trkpt lat="43.47407" lon="6.33644">
        <ele>153.47</ele>
        <time>2015-11-10T13:09:51Z</time>
      </trkpt>
      <trkpt lat="43.47394" lon="6.33643">
        <ele>152.51</ele>
        <time>2015-11-10T13:10:03Z</time>
      </trkpt>
      <trkpt lat="43.47393" lon="6.33643">
        <ele>152.03</ele>
        <time>2015-11-10T13:10:04Z</time>
      </trkpt>
      <trkpt lat="43.47383" lon="6.33645">
        <ele>151.06</ele>
        <time>2015-11-10T13:10:14Z</time>
      </trkpt>
      <trkpt lat="43.47379" lon="6.33645">
        <ele>150.58</ele>
        <time>2015-11-10T13:10:17Z</time>
      </trkpt>
      <trkpt lat="43.47376" lon="6.33646">
        <ele>150.58</ele>
        <time>2015-11-10T13:10:19Z</time>
      </trkpt>
      <trkpt lat="43.4737" lon="6.33647">
        <ele>150.58</ele>
        <time>2015-11-10T13:10:24Z</time>
      </trkpt>
      <trkpt lat="43.47363" lon="6.33647">
        <ele>150.1</ele>
        <time>2015-11-10T13:10:31Z</time>
      </trkpt>
      <trkpt lat="43.47352" lon="6.33642">
        <ele>150.1</ele>
        <time>2015-11-10T13:10:46Z</time>
      </trkpt>
      <trkpt lat="43.47341" lon="6.33629">
        <ele>150.1</ele>
        <time>2015-11-10T13:11:00Z</time>
      </trkpt>
      <trkpt lat="43.47339" lon="6.33613">
        <ele>151.06</ele>
        <time>2015-11-10T13:11:15Z</time>
      </trkpt>
      <trkpt lat="43.47327" lon="6.33597">
        <ele>152.99</ele>
        <time>2015-11-10T13:11:31Z</time>
      </trkpt>
      <trkpt lat="43.47321" lon="6.33585">
        <ele>154.91</ele>
        <time>2015-11-10T13:11:45Z</time>
      </trkpt>
      <trkpt lat="43.47313" lon="6.33571">
        <ele>156.35</ele>
        <time>2015-11-10T13:11:59Z</time>
      </trkpt>
      <trkpt lat="43.47307" lon="6.33556">
        <ele>158.27</ele>
        <time>2015-11-10T13:12:15Z</time>
      </trkpt>
      <trkpt lat="43.47299" lon="6.33541">
        <ele>159.72</ele>
        <time>2015-11-10T13:12:31Z</time>
      </trkpt>
      <trkpt lat="43.47294" lon="6.33534">
        <ele>160.2</ele>
        <time>2015-11-10T13:12:37Z</time>
      </trkpt>
      <trkpt lat="43.47282" lon="6.3352">
        <ele>162.12</ele>
        <time>2015-11-10T13:12:52Z</time>
      </trkpt>
      <trkpt lat="43.47272" lon="6.33509">
        <ele>163.08</ele>
        <time>2015-11-10T13:13:04Z</time>
      </trkpt>
      <trkpt lat="43.47266" lon="6.33496">
        <ele>165</ele>
        <time>2015-11-10T13:13:20Z</time>
      </trkpt>
      <trkpt lat="43.47264" lon="6.33485">
        <ele>165.96</ele>
        <time>2015-11-10T13:13:31Z</time>
      </trkpt>
      <trkpt lat="43.47264" lon="6.33483">
        <ele>166.45</ele>
        <time>2015-11-10T13:13:33Z</time>
      </trkpt>
      <trkpt lat="43.47264" lon="6.3348">
        <ele>166.45</ele>
        <time>2015-11-10T13:13:35Z</time>
      </trkpt>
      <trkpt lat="43.47257" lon="6.33459">
        <ele>167.41</ele>
        <time>2015-11-10T13:13:50Z</time>
      </trkpt>
      <trkpt lat="43.47257" lon="6.33456">
        <ele>167.89</ele>
        <time>2015-11-10T13:13:54Z</time>
      </trkpt>
      <trkpt lat="43.47253" lon="6.33436">
        <ele>167.89</ele>
        <time>2015-11-10T13:14:13Z</time>
      </trkpt>
      <trkpt lat="43.47248" lon="6.33428">
        <ele>168.37</ele>
        <time>2015-11-10T13:14:28Z</time>
      </trkpt>
      <trkpt lat="43.47245" lon="6.33425">
        <ele>168.37</ele>
        <time>2015-11-10T13:14:46Z</time>
      </trkpt>
      <trkpt lat="43.47242" lon="6.33424">
        <ele>168.37</ele>
        <time>2015-11-10T13:15:02Z</time>
      </trkpt>
      <trkpt lat="43.47241" lon="6.33425">
        <ele>168.37</ele>
        <time>2015-11-10T13:15:26Z</time>
      </trkpt>
      <trkpt lat="43.47242" lon="6.3343">
        <ele>168.37</ele>
        <time>2015-11-10T13:15:58Z</time>
      </trkpt>
      <trkpt lat="43.47242" lon="6.33433">
        <ele>168.37</ele>
        <time>2015-11-10T13:16:20Z</time>
      </trkpt>
      <trkpt lat="43.47242" lon="6.33434">
        <ele>168.37</ele>
        <time>2015-11-10T13:16:45Z</time>
      </trkpt>
      <trkpt lat="43.47242" lon="6.33434">
        <ele>168.37</ele>
        <time>2015-11-10T13:17:13Z</time>
      </trkpt>
      <trkpt lat="43.47242" lon="6.33434">
        <ele>168.37</ele>
        <time>2015-11-10T13:17:31Z</time>
      </trkpt>
      <trkpt lat="43.47242" lon="6.33433">
        <ele>168.37</ele>
        <time>2015-11-10T13:17:55Z</time>
      </trkpt>
      <trkpt lat="43.47232" lon="6.33413">
        <ele>167.89</ele>
        <time>2015-11-10T13:18:10Z</time>
      </trkpt>
      <trkpt lat="43.47224" lon="6.33406">
        <ele>166.93</ele>
        <time>2015-11-10T13:18:17Z</time>
      </trkpt>
      <trkpt lat="43.47213" lon="6.33401">
        <ele>166.45</ele>
        <time>2015-11-10T13:18:26Z</time>
      </trkpt>
      <trkpt lat="43.47197" lon="6.33393">
        <ele>165</ele>
        <time>2015-11-10T13:18:40Z</time>
      </trkpt>
      <trkpt lat="43.47196" lon="6.33393">
        <ele>164.52</ele>
        <time>2015-11-10T13:18:41Z</time>
      </trkpt>
      <trkpt lat="43.47188" lon="6.33387">
        <ele>163.56</ele>
        <time>2015-11-10T13:18:52Z</time>
      </trkpt>
      <trkpt lat="43.47175" lon="6.33375">
        <ele>161.64</ele>
        <time>2015-11-10T13:19:10Z</time>
      </trkpt>
      <trkpt lat="43.47169" lon="6.33365">
        <ele>160.68</ele>
        <time>2015-11-10T13:19:20Z</time>
      </trkpt>
      <trkpt lat="43.47162" lon="6.33351">
        <ele>158.75</ele>
        <time>2015-11-10T13:19:35Z</time>
      </trkpt>
      <trkpt lat="43.47154" lon="6.33335">
        <ele>156.35</ele>
        <time>2015-11-10T13:19:51Z</time>
      </trkpt>
      <trkpt lat="43.47149" lon="6.33316">
        <ele>153.95</ele>
        <time>2015-11-10T13:20:08Z</time>
      </trkpt>
      <trkpt lat="43.47144" lon="6.33296">
        <ele>152.03</ele>
        <time>2015-11-10T13:20:23Z</time>
      </trkpt>
      <trkpt lat="43.4714" lon="6.33276">
        <ele>150.1</ele>
        <time>2015-11-10T13:20:38Z</time>
      </trkpt>
      <trkpt lat="43.47141" lon="6.33261">
        <ele>149.14</ele>
        <time>2015-11-10T13:20:51Z</time>
      </trkpt>
      <trkpt lat="43.47142" lon="6.33253">
        <ele>148.18</ele>
        <time>2015-11-10T13:20:57Z</time>
      </trkpt>
      <trkpt lat="43.47142" lon="6.33239">
        <ele>147.7</ele>
        <time>2015-11-10T13:21:08Z</time>
      </trkpt>
      <trkpt lat="43.47146" lon="6.3322">
        <ele>145.78</ele>
        <time>2015-11-10T13:21:24Z</time>
      </trkpt>
      <trkpt lat="43.47149" lon="6.33197">
        <ele>143.37</ele>
        <time>2015-11-10T13:21:42Z</time>
      </trkpt>
      <trkpt lat="43.47147" lon="6.33196">
        <ele>143.37</ele>
        <time>2015-11-10T13:22:03Z</time>
      </trkpt>
      <trkpt lat="43.47144" lon="6.33195">
        <ele>143.37</ele>
        <time>2015-11-10T13:22:33Z</time>
      </trkpt>
      <trkpt lat="43.47143" lon="6.33195">
        <ele>143.37</ele>
        <time>2015-11-10T13:22:59Z</time>
      </trkpt>
      <trkpt lat="43.47143" lon="6.33197">
        <ele>143.37</ele>
        <time>2015-11-10T13:23:16Z</time>
      </trkpt>
      <trkpt lat="43.47145" lon="6.33192">
        <ele>142.41</ele>
        <time>2015-11-10T13:23:36Z</time>
      </trkpt>
      <trkpt lat="43.4715" lon="6.33178">
        <ele>140.97</ele>
        <time>2015-11-10T13:23:50Z</time>
      </trkpt>
      <trkpt lat="43.47153" lon="6.33168">
        <ele>140.01</ele>
        <time>2015-11-10T13:23:59Z</time>
      </trkpt>
      <trkpt lat="43.47156" lon="6.33155">
        <ele>139.05</ele>
        <time>2015-11-10T13:24:11Z</time>
      </trkpt>
      <trkpt lat="43.47158" lon="6.33151">
        <ele>138.57</ele>
        <time>2015-11-10T13:24:15Z</time>
      </trkpt>
      <trkpt lat="43.47165" lon="6.33133">
        <ele>137.13</ele>
        <time>2015-11-10T13:24:27Z</time>
      </trkpt>
      <trkpt lat="43.47166" lon="6.3313">
        <ele>136.64</ele>
        <time>2015-11-10T13:24:29Z</time>
      </trkpt>
      <trkpt lat="43.47161" lon="6.33109">
        <ele>135.2</ele>
        <time>2015-11-10T13:24:44Z</time>
      </trkpt>
      <trkpt lat="43.47156" lon="6.33094">
        <ele>134.24</ele>
        <time>2015-11-10T13:24:56Z</time>
      </trkpt>
      <trkpt lat="43.47146" lon="6.33078">
        <ele>132.8</ele>
        <time>2015-11-10T13:25:09Z</time>
      </trkpt>
      <trkpt lat="43.47136" lon="6.33062">
        <ele>131.36</ele>
        <time>2015-11-10T13:25:23Z</time>
      </trkpt>
      <trkpt lat="43.47123" lon="6.33049">
        <ele>129.43</ele>
        <time>2015-11-10T13:25:37Z</time>
      </trkpt>
      <trkpt lat="43.4712" lon="6.33046">
        <ele>129.43</ele>
        <time>2015-11-10T13:25:40Z</time>
      </trkpt>
      <trkpt lat="43.47118" lon="6.33043">
        <ele>128.95</ele>
        <time>2015-11-10T13:25:42Z</time>
      </trkpt>
      <trkpt lat="43.47113" lon="6.3304">
        <ele>128.47</ele>
        <time>2015-11-10T13:25:47Z</time>
      </trkpt>
      <trkpt lat="43.47103" lon="6.33033">
        <ele>127.99</ele>
        <time>2015-11-10T13:25:58Z</time>
      </trkpt>
      <trkpt lat="43.47092" lon="6.3302">
        <ele>126.55</ele>
        <time>2015-11-10T13:26:14Z</time>
      </trkpt>
      <trkpt lat="43.47079" lon="6.33008">
        <ele>125.11</ele>
        <time>2015-11-10T13:26:28Z</time>
      </trkpt>
      <trkpt lat="43.47077" lon="6.33007">
        <ele>125.11</ele>
        <time>2015-11-10T13:26:31Z</time>
      </trkpt>
      <trkpt lat="43.4707" lon="6.33001">
        <ele>124.15</ele>
        <time>2015-11-10T13:26:40Z</time>
      </trkpt>
      <trkpt lat="43.4706" lon="6.32996">
        <ele>122.71</ele>
        <time>2015-11-10T13:26:52Z</time>
      </trkpt>
      <trkpt lat="43.47052" lon="6.32994">
        <ele>122.22</ele>
        <time>2015-11-10T13:27:00Z</time>
      </trkpt>
      <trkpt lat="43.47046" lon="6.32991">
        <ele>121.74</ele>
        <time>2015-11-10T13:27:05Z</time>
      </trkpt>
      <trkpt lat="43.47041" lon="6.32989">
        <ele>121.26</ele>
        <time>2015-11-10T13:27:10Z</time>
      </trkpt>
      <trkpt lat="43.47028" lon="6.3298">
        <ele>120.3</ele>
        <time>2015-11-10T13:27:25Z</time>
      </trkpt>
      <trkpt lat="43.4702" lon="6.32976">
        <ele>119.34</ele>
        <time>2015-11-10T13:27:36Z</time>
      </trkpt>
      <trkpt lat="43.47009" lon="6.32967">
        <ele>117.42</ele>
        <time>2015-11-10T13:27:47Z</time>
      </trkpt>
      <trkpt lat="43.47006" lon="6.32967">
        <ele>116.94</ele>
        <time>2015-11-10T13:27:51Z</time>
      </trkpt>
      <trkpt lat="43.47003" lon="6.32964">
        <ele>116.94</ele>
        <time>2015-11-10T13:27:54Z</time>
      </trkpt>
      <trkpt lat="43.47002" lon="6.32963">
        <ele>116.46</ele>
        <time>2015-11-10T13:27:56Z</time>
      </trkpt>
      <trkpt lat="43.47" lon="6.32959">
        <ele>115.98</ele>
        <time>2015-11-10T13:27:59Z</time>
      </trkpt>
      <trkpt lat="43.46998" lon="6.32957">
        <ele>115.98</ele>
        <time>2015-11-10T13:28:02Z</time>
      </trkpt>
      <trkpt lat="43.46996" lon="6.32955">
        <ele>115.5</ele>
        <time>2015-11-10T13:28:05Z</time>
      </trkpt>
      <trkpt lat="43.46994" lon="6.32945">
        <ele>114.05</ele>
        <time>2015-11-10T13:28:18Z</time>
      </trkpt>
      <trkpt lat="43.46984" lon="6.32927">
        <ele>111.65</ele>
        <time>2015-11-10T13:28:32Z</time>
      </trkpt>
      <trkpt lat="43.4698" lon="6.32922">
        <ele>111.17</ele>
        <time>2015-11-10T13:28:38Z</time>
      </trkpt>
      <trkpt lat="43.46979" lon="6.32918">
        <ele>110.21</ele>
        <time>2015-11-10T13:28:42Z</time>
      </trkpt>
      <trkpt lat="43.46976" lon="6.32901">
        <ele>107.81</ele>
        <time>2015-11-10T13:28:57Z</time>
      </trkpt>
      <trkpt lat="43.46975" lon="6.32888">
        <ele>106.36</ele>
        <time>2015-11-10T13:29:07Z</time>
      </trkpt>
      <trkpt lat="43.46973" lon="6.3288">
        <ele>104.92</ele>
        <time>2015-11-10T13:29:15Z</time>
      </trkpt>
      <trkpt lat="43.46963" lon="6.32863">
        <ele>102.52</ele>
        <time>2015-11-10T13:29:31Z</time>
      </trkpt>
      <trkpt lat="43.46956" lon="6.32848">
        <ele>100.6</ele>
        <time>2015-11-10T13:29:44Z</time>
      </trkpt>
      <trkpt lat="43.46948" lon="6.32831">
        <ele>98.19</ele>
        <time>2015-11-10T13:29:58Z</time>
      </trkpt>
      <trkpt lat="43.46947" lon="6.32819">
        <ele>98.19</ele>
        <time>2015-11-10T13:30:11Z</time>
      </trkpt>
      <trkpt lat="43.46949" lon="6.32824">
        <ele>97.23</ele>
        <time>2015-11-10T13:30:21Z</time>
      </trkpt>
      <trkpt lat="43.4695" lon="6.32823">
        <ele>97.23</ele>
        <time>2015-11-10T13:30:41Z</time>
      </trkpt>
      <trkpt lat="43.4695" lon="6.32822">
        <ele>97.23</ele>
        <time>2015-11-10T13:30:55Z</time>
      </trkpt>
      <trkpt lat="43.4695" lon="6.3282">
        <ele>97.23</ele>
        <time>2015-11-10T13:31:08Z</time>
      </trkpt>
      <trkpt lat="43.4695" lon="6.32822">
        <ele>97.71</ele>
        <time>2015-11-10T13:31:27Z</time>
      </trkpt>
      <trkpt lat="43.46951" lon="6.32825">
        <ele>97.71</ele>
        <time>2015-11-10T13:31:44Z</time>
      </trkpt>
      <trkpt lat="43.46948" lon="6.32823">
        <ele>97.23</ele>
        <time>2015-11-10T13:32:01Z</time>
      </trkpt>
      <trkpt lat="43.46948" lon="6.32822">
        <ele>97.23</ele>
        <time>2015-11-10T13:32:25Z</time>
      </trkpt>
      <trkpt lat="43.46945" lon="6.3282">
        <ele>96.75</ele>
        <time>2015-11-10T13:32:41Z</time>
      </trkpt>
      <trkpt lat="43.46944" lon="6.3281">
        <ele>96.75</ele>
        <time>2015-11-10T13:32:53Z</time>
      </trkpt>
      <trkpt lat="43.46944" lon="6.32808">
        <ele>96.75</ele>
        <time>2015-11-10T13:32:54Z</time>
      </trkpt>
      <trkpt lat="43.46939" lon="6.32792">
        <ele>96.75</ele>
        <time>2015-11-10T13:33:08Z</time>
      </trkpt>
      <trkpt lat="43.46929" lon="6.32779">
        <ele>96.75</ele>
        <time>2015-11-10T13:33:21Z</time>
      </trkpt>
      <trkpt lat="43.46923" lon="6.32764">
        <ele>96.75</ele>
        <time>2015-11-10T13:33:36Z</time>
      </trkpt>
      <trkpt lat="43.46909" lon="6.32753">
        <ele>97.23</ele>
        <time>2015-11-10T13:33:51Z</time>
      </trkpt>
      <trkpt lat="43.46904" lon="6.32751">
        <ele>97.23</ele>
        <time>2015-11-10T13:33:55Z</time>
      </trkpt>
      <trkpt lat="43.46881" lon="6.32732">
        <ele>97.71</ele>
        <time>2015-11-10T13:34:09Z</time>
      </trkpt>
      <trkpt lat="43.46872" lon="6.32726">
        <ele>97.71</ele>
        <time>2015-11-10T13:34:16Z</time>
      </trkpt>
      <trkpt lat="43.46864" lon="6.32725">
        <ele>98.19</ele>
        <time>2015-11-10T13:34:23Z</time>
      </trkpt>
      <trkpt lat="43.46846" lon="6.32728">
        <ele>98.67</ele>
        <time>2015-11-10T13:34:38Z</time>
      </trkpt>
      <trkpt lat="43.46846" lon="6.32729">
        <ele>98.67</ele>
        <time>2015-11-10T13:34:55Z</time>
      </trkpt>
      <trkpt lat="43.46841" lon="6.32732">
        <ele>98.19</ele>
        <time>2015-11-10T13:35:11Z</time>
      </trkpt>
      <trkpt lat="43.46837" lon="6.32739">
        <ele>98.19</ele>
        <time>2015-11-10T13:35:28Z</time>
      </trkpt>
      <trkpt lat="43.46835" lon="6.3274">
        <ele>98.19</ele>
        <time>2015-11-10T13:35:48Z</time>
      </trkpt>
      <trkpt lat="43.46833" lon="6.32743">
        <ele>98.19</ele>
        <time>2015-11-10T13:36:12Z</time>
      </trkpt>
      <trkpt lat="43.46831" lon="6.32748">
        <ele>98.19</ele>
        <time>2015-11-10T13:36:36Z</time>
      </trkpt>
      <trkpt lat="43.46831" lon="6.32748">
        <ele>97.71</ele>
        <time>2015-11-10T13:36:56Z</time>
      </trkpt>
      <trkpt lat="43.46831" lon="6.32749">
        <ele>97.71</ele>
        <time>2015-11-10T13:37:16Z</time>
      </trkpt>
      <trkpt lat="43.46831" lon="6.32751">
        <ele>97.71</ele>
        <time>2015-11-10T13:37:36Z</time>
      </trkpt>
      <trkpt lat="43.46835" lon="6.32751">
        <ele>97.71</ele>
        <time>2015-11-10T13:37:56Z</time>
      </trkpt>
      <trkpt lat="43.46837" lon="6.32748">
        <ele>97.71</ele>
        <time>2015-11-10T13:37:59Z</time>
      </trkpt>
      <trkpt lat="43.46839" lon="6.32745">
        <ele>97.71</ele>
        <time>2015-11-10T13:38:15Z</time>
      </trkpt>
      <trkpt lat="43.4684" lon="6.32745">
        <ele>97.71</ele>
        <time>2015-11-10T13:38:16Z</time>
      </trkpt>
      <trkpt lat="43.46846" lon="6.32739">
        <ele>97.23</ele>
        <time>2015-11-10T13:38:29Z</time>
      </trkpt>
      <trkpt lat="43.46849" lon="6.3274">
        <ele>97.23</ele>
        <time>2015-11-10T13:38:42Z</time>
      </trkpt>
      <trkpt lat="43.46855" lon="6.32738">
        <ele>97.23</ele>
        <time>2015-11-10T13:38:57Z</time>
      </trkpt>
      <trkpt lat="43.46859" lon="6.32738">
        <ele>96.75</ele>
        <time>2015-11-10T13:39:01Z</time>
      </trkpt>
      <trkpt lat="43.46864" lon="6.32741">
        <ele>96.75</ele>
        <time>2015-11-10T13:39:06Z</time>
      </trkpt>
      <trkpt lat="43.46869" lon="6.32743">
        <ele>96.27</ele>
        <time>2015-11-10T13:39:11Z</time>
      </trkpt>
      <trkpt lat="43.4688" lon="6.32749">
        <ele>96.27</ele>
        <time>2015-11-10T13:39:24Z</time>
      </trkpt>
      <trkpt lat="43.46894" lon="6.32756">
        <ele>95.79</ele>
        <time>2015-11-10T13:39:38Z</time>
      </trkpt>
      <trkpt lat="43.46906" lon="6.32763">
        <ele>95.79</ele>
        <time>2015-11-10T13:39:51Z</time>
      </trkpt>
      <trkpt lat="43.46918" lon="6.32776">
        <ele>95.31</ele>
        <time>2015-11-10T13:40:04Z</time>
      </trkpt>
      <trkpt lat="43.46919" lon="6.32777">
        <ele>95.31</ele>
        <time>2015-11-10T13:40:06Z</time>
      </trkpt>
      <trkpt lat="43.46921" lon="6.32781">
        <ele>94.83</ele>
        <time>2015-11-10T13:40:09Z</time>
      </trkpt>
      <trkpt lat="43.46928" lon="6.32794">
        <ele>95.31</ele>
        <time>2015-11-10T13:40:18Z</time>
      </trkpt>
      <trkpt lat="43.46936" lon="6.32805">
        <ele>94.83</ele>
        <time>2015-11-10T13:40:29Z</time>
      </trkpt>
      <trkpt lat="43.46936" lon="6.32808">
        <ele>94.83</ele>
        <time>2015-11-10T13:40:31Z</time>
      </trkpt>
      <trkpt lat="43.46941" lon="6.32815">
        <ele>94.83</ele>
        <time>2015-11-10T13:40:38Z</time>
      </trkpt>
      <trkpt lat="43.46946" lon="6.32829">
        <ele>95.31</ele>
        <time>2015-11-10T13:40:48Z</time>
      </trkpt>
      <trkpt lat="43.46953" lon="6.32841">
        <ele>95.31</ele>
        <time>2015-11-10T13:41:01Z</time>
      </trkpt>
      <trkpt lat="43.46956" lon="6.32843">
        <ele>95.79</ele>
        <time>2015-11-10T13:41:05Z</time>
      </trkpt>
      <trkpt lat="43.46968" lon="6.32858">
        <ele>96.27</ele>
        <time>2015-11-10T13:41:22Z</time>
      </trkpt>
      <trkpt lat="43.4697" lon="6.32858">
        <ele>96.27</ele>
        <time>2015-11-10T13:41:23Z</time>
      </trkpt>
      <trkpt lat="43.4698" lon="6.32872">
        <ele>96.27</ele>
        <time>2015-11-10T13:41:38Z</time>
      </trkpt>
      <trkpt lat="43.46985" lon="6.32881">
        <ele>96.75</ele>
        <time>2015-11-10T13:41:46Z</time>
      </trkpt>
      <trkpt lat="43.46993" lon="6.32899">
        <ele>97.71</ele>
        <time>2015-11-10T13:42:02Z</time>
      </trkpt>
      <trkpt lat="43.47004" lon="6.32919">
        <ele>97.23</ele>
        <time>2015-11-10T13:42:18Z</time>
      </trkpt>
      <trkpt lat="43.47006" lon="6.32921">
        <ele>97.23</ele>
        <time>2015-11-10T13:42:21Z</time>
      </trkpt>
      <trkpt lat="43.4702" lon="6.32937">
        <ele>97.23</ele>
        <time>2015-11-10T13:42:36Z</time>
      </trkpt>
      <trkpt lat="43.47029" lon="6.32943">
        <ele>97.71</ele>
        <time>2015-11-10T13:42:45Z</time>
      </trkpt>
      <trkpt lat="43.47044" lon="6.32947">
        <ele>97.71</ele>
        <time>2015-11-10T13:43:01Z</time>
      </trkpt>
      <trkpt lat="43.47056" lon="6.32949">
        <ele>98.19</ele>
        <time>2015-11-10T13:43:14Z</time>
      </trkpt>
      <trkpt lat="43.47072" lon="6.32947">
        <ele>98.67</ele>
        <time>2015-11-10T13:43:29Z</time>
      </trkpt>
      <trkpt lat="43.47082" lon="6.32942">
        <ele>98.67</ele>
        <time>2015-11-10T13:43:40Z</time>
      </trkpt>
      <trkpt lat="43.47096" lon="6.32931">
        <ele>98.19</ele>
        <time>2015-11-10T13:43:56Z</time>
      </trkpt>
      <trkpt lat="43.47102" lon="6.32922">
        <ele>98.19</ele>
        <time>2015-11-10T13:44:04Z</time>
      </trkpt>
      <trkpt lat="43.47105" lon="6.32916">
        <ele>97.71</ele>
        <time>2015-11-10T13:44:09Z</time>
      </trkpt>
      <trkpt lat="43.47115" lon="6.32901">
        <ele>97.71</ele>
        <time>2015-11-10T13:44:22Z</time>
      </trkpt>
      <trkpt lat="43.47124" lon="6.32884">
        <ele>97.71</ele>
        <time>2015-11-10T13:44:37Z</time>
      </trkpt>
      <trkpt lat="43.47128" lon="6.3287">
        <ele>98.19</ele>
        <time>2015-11-10T13:44:51Z</time>
      </trkpt>
      <trkpt lat="43.47127" lon="6.32866">
        <ele>97.71</ele>
        <time>2015-11-10T13:45:05Z</time>
      </trkpt>
      <trkpt lat="43.47128" lon="6.32864">
        <ele>97.71</ele>
        <time>2015-11-10T13:45:07Z</time>
      </trkpt>
      <trkpt lat="43.4713" lon="6.32861">
        <ele>97.71</ele>
        <time>2015-11-10T13:45:11Z</time>
      </trkpt>
      <trkpt lat="43.47131" lon="6.32856">
        <ele>98.19</ele>
        <time>2015-11-10T13:45:15Z</time>
      </trkpt>
      <trkpt lat="43.47136" lon="6.32849">
        <ele>98.19</ele>
        <time>2015-11-10T13:45:21Z</time>
      </trkpt>
      <trkpt lat="43.47144" lon="6.32833">
        <ele>98.19</ele>
        <time>2015-11-10T13:45:35Z</time>
      </trkpt>
      <trkpt lat="43.47146" lon="6.32828">
        <ele>98.19</ele>
        <time>2015-11-10T13:45:39Z</time>
      </trkpt>
      <trkpt lat="43.47147" lon="6.32826">
        <ele>98.19</ele>
        <time>2015-11-10T13:45:41Z</time>
      </trkpt>
      <trkpt lat="43.47159" lon="6.32813">
        <ele>98.19</ele>
        <time>2015-11-10T13:45:56Z</time>
      </trkpt>
      <trkpt lat="43.47161" lon="6.32812">
        <ele>98.19</ele>
        <time>2015-11-10T13:45:59Z</time>
      </trkpt>
      <trkpt lat="43.47174" lon="6.32801">
        <ele>98.19</ele>
        <time>2015-11-10T13:46:13Z</time>
      </trkpt>
      <trkpt lat="43.47183" lon="6.32793">
        <ele>98.19</ele>
        <time>2015-11-10T13:46:24Z</time>
      </trkpt>
      <trkpt lat="43.47188" lon="6.32792">
        <ele>98.19</ele>
        <time>2015-11-10T13:46:29Z</time>
      </trkpt>
      <trkpt lat="43.47204" lon="6.32784">
        <ele>98.19</ele>
        <time>2015-11-10T13:46:46Z</time>
      </trkpt>
      <trkpt lat="43.47206" lon="6.32784">
        <ele>98.67</ele>
        <time>2015-11-10T13:46:49Z</time>
      </trkpt>
      <trkpt lat="43.47214" lon="6.32786">
        <ele>98.67</ele>
        <time>2015-11-10T13:46:55Z</time>
      </trkpt>
      <trkpt lat="43.47227" lon="6.32783">
        <ele>99.15</ele>
        <time>2015-11-10T13:47:09Z</time>
      </trkpt>
      <trkpt lat="43.47246" lon="6.32778">
        <ele>99.63</ele>
        <time>2015-11-10T13:47:26Z</time>
      </trkpt>
      <trkpt lat="43.47253" lon="6.32778">
        <ele>100.11</ele>
        <time>2015-11-10T13:47:34Z</time>
      </trkpt>
      <trkpt lat="43.4726" lon="6.32779">
        <ele>100.6</ele>
        <time>2015-11-10T13:47:41Z</time>
      </trkpt>
      <trkpt lat="43.47265" lon="6.32779">
        <ele>100.11</ele>
        <time>2015-11-10T13:47:46Z</time>
      </trkpt>
      <trkpt lat="43.4728" lon="6.32783">
        <ele>100.11</ele>
        <time>2015-11-10T13:48:00Z</time>
      </trkpt>
      <trkpt lat="43.4729" lon="6.32788">
        <ele>100.6</ele>
        <time>2015-11-10T13:48:09Z</time>
      </trkpt>
      <trkpt lat="43.47293" lon="6.32791">
        <ele>100.6</ele>
        <time>2015-11-10T13:48:12Z</time>
      </trkpt>
      <trkpt lat="43.47308" lon="6.32803">
        <ele>101.08</ele>
        <time>2015-11-10T13:48:27Z</time>
      </trkpt>
      <trkpt lat="43.4732" lon="6.32819">
        <ele>101.08</ele>
        <time>2015-11-10T13:48:41Z</time>
      </trkpt>
      <trkpt lat="43.47324" lon="6.32825">
        <ele>101.56</ele>
        <time>2015-11-10T13:48:47Z</time>
      </trkpt>
      <trkpt lat="43.47326" lon="6.32827">
        <ele>101.56</ele>
        <time>2015-11-10T13:48:49Z</time>
      </trkpt>
      <trkpt lat="43.47339" lon="6.3284">
        <ele>101.56</ele>
        <time>2015-11-10T13:49:02Z</time>
      </trkpt>
      <trkpt lat="43.4735" lon="6.32855">
        <ele>102.04</ele>
        <time>2015-11-10T13:49:16Z</time>
      </trkpt>
      <trkpt lat="43.47358" lon="6.32869">
        <ele>102.04</ele>
        <time>2015-11-10T13:49:28Z</time>
      </trkpt>
      <trkpt lat="43.4736" lon="6.32871">
        <ele>102.04</ele>
        <time>2015-11-10T13:49:30Z</time>
      </trkpt>
      <trkpt lat="43.47364" lon="6.32878">
        <ele>102.52</ele>
        <time>2015-11-10T13:49:36Z</time>
      </trkpt>
      <trkpt lat="43.47367" lon="6.32884">
        <ele>102.52</ele>
        <time>2015-11-10T13:49:41Z</time>
      </trkpt>
      <trkpt lat="43.47369" lon="6.32888">
        <ele>102.52</ele>
        <time>2015-11-10T13:49:44Z</time>
      </trkpt>
      <trkpt lat="43.47369" lon="6.32892">
        <ele>102.52</ele>
        <time>2015-11-10T13:49:47Z</time>
      </trkpt>
      <trkpt lat="43.47375" lon="6.32914">
        <ele>102.52</ele>
        <time>2015-11-10T13:50:02Z</time>
      </trkpt>
      <trkpt lat="43.47383" lon="6.32928">
        <ele>102.52</ele>
        <time>2015-11-10T13:50:14Z</time>
      </trkpt>
      <trkpt lat="43.47392" lon="6.32931">
        <ele>103</ele>
        <time>2015-11-10T13:50:23Z</time>
      </trkpt>
      <trkpt lat="43.47398" lon="6.32929">
        <ele>102.52</ele>
        <time>2015-11-10T13:50:28Z</time>
      </trkpt>
      <trkpt lat="43.47412" lon="6.32923">
        <ele>103</ele>
        <time>2015-11-10T13:50:42Z</time>
      </trkpt>
      <trkpt lat="43.47419" lon="6.32917">
        <ele>103</ele>
        <time>2015-11-10T13:50:51Z</time>
      </trkpt>
      <trkpt lat="43.47434" lon="6.329">
        <ele>103</ele>
        <time>2015-11-10T13:51:07Z</time>
      </trkpt>
      <trkpt lat="43.47447" lon="6.32884">
        <ele>103.48</ele>
        <time>2015-11-10T13:51:22Z</time>
      </trkpt>
      <trkpt lat="43.47459" lon="6.32874">
        <ele>103.48</ele>
        <time>2015-11-10T13:51:35Z</time>
      </trkpt>
      <trkpt lat="43.47471" lon="6.32861">
        <ele>103.96</ele>
        <time>2015-11-10T13:51:49Z</time>
      </trkpt>
      <trkpt lat="43.47481" lon="6.32853">
        <ele>103.96</ele>
        <time>2015-11-10T13:52:01Z</time>
      </trkpt>
      <trkpt lat="43.47496" lon="6.32839">
        <ele>104.92</ele>
        <time>2015-11-10T13:52:17Z</time>
      </trkpt>
      <trkpt lat="43.47509" lon="6.32826">
        <ele>105.4</ele>
        <time>2015-11-10T13:52:32Z</time>
      </trkpt>
      <trkpt lat="43.4752" lon="6.32815">
        <ele>105.4</ele>
        <time>2015-11-10T13:52:45Z</time>
      </trkpt>
      <trkpt lat="43.47529" lon="6.3281">
        <ele>105.88</ele>
        <time>2015-11-10T13:52:55Z</time>
      </trkpt>
      <trkpt lat="43.47537" lon="6.32811">
        <ele>105.88</ele>
        <time>2015-11-10T13:53:02Z</time>
      </trkpt>
      <trkpt lat="43.47553" lon="6.32816">
        <ele>106.84</ele>
        <time>2015-11-10T13:53:18Z</time>
      </trkpt>
      <trkpt lat="43.47569" lon="6.32822">
        <ele>107.32</ele>
        <time>2015-11-10T13:53:33Z</time>
      </trkpt>
      <trkpt lat="43.47575" lon="6.32828">
        <ele>107.32</ele>
        <time>2015-11-10T13:53:39Z</time>
      </trkpt>
      <trkpt lat="43.4758" lon="6.32836">
        <ele>106.84</ele>
        <time>2015-11-10T13:53:47Z</time>
      </trkpt>
      <trkpt lat="43.47586" lon="6.32856">
        <ele>106.84</ele>
        <time>2015-11-10T13:54:01Z</time>
      </trkpt>
      <trkpt lat="43.47589" lon="6.3287">
        <ele>107.32</ele>
        <time>2015-11-10T13:54:10Z</time>
      </trkpt>
      <trkpt lat="43.47593" lon="6.3289">
        <ele>107.32</ele>
        <time>2015-11-10T13:54:23Z</time>
      </trkpt>
      <trkpt lat="43.47598" lon="6.32908">
        <ele>108.29</ele>
        <time>2015-11-10T13:54:36Z</time>
      </trkpt>
      <trkpt lat="43.47603" lon="6.3293">
        <ele>108.29</ele>
        <time>2015-11-10T13:54:53Z</time>
      </trkpt>
      <trkpt lat="43.47613" lon="6.32948">
        <ele>108.29</ele>
        <time>2015-11-10T13:55:07Z</time>
      </trkpt>
      <trkpt lat="43.47616" lon="6.32955">
        <ele>108.77</ele>
        <time>2015-11-10T13:55:12Z</time>
      </trkpt>
      <trkpt lat="43.47622" lon="6.32965">
        <ele>108.77</ele>
        <time>2015-11-10T13:55:21Z</time>
      </trkpt>
      <trkpt lat="43.47624" lon="6.32968">
        <ele>108.77</ele>
        <time>2015-11-10T13:55:24Z</time>
      </trkpt>
      <trkpt lat="43.47631" lon="6.32982">
        <ele>108.77</ele>
        <time>2015-11-10T13:55:37Z</time>
      </trkpt>
      <trkpt lat="43.47638" lon="6.32998">
        <ele>108.77</ele>
        <time>2015-11-10T13:55:50Z</time>
      </trkpt>
      <trkpt lat="43.47645" lon="6.33019">
        <ele>109.25</ele>
        <time>2015-11-10T13:56:06Z</time>
      </trkpt>
      <trkpt lat="43.4765" lon="6.33038">
        <ele>109.25</ele>
        <time>2015-11-10T13:56:20Z</time>
      </trkpt>
      <trkpt lat="43.47656" lon="6.33059">
        <ele>109.25</ele>
        <time>2015-11-10T13:56:36Z</time>
      </trkpt>
      <trkpt lat="43.47662" lon="6.33076">
        <ele>109.25</ele>
        <time>2015-11-10T13:56:49Z</time>
      </trkpt>
      <trkpt lat="43.4767" lon="6.33091">
        <ele>109.25</ele>
        <time>2015-11-10T13:57:02Z</time>
      </trkpt>
      <trkpt lat="43.4768" lon="6.33105">
        <ele>109.25</ele>
        <time>2015-11-10T13:57:15Z</time>
      </trkpt>
      <trkpt lat="43.47686" lon="6.33111">
        <ele>109.25</ele>
        <time>2015-11-10T13:57:22Z</time>
      </trkpt>
      <trkpt lat="43.47687" lon="6.33114">
        <ele>109.73</ele>
        <time>2015-11-10T13:57:25Z</time>
      </trkpt>
      <trkpt lat="43.47701" lon="6.33127">
        <ele>109.73</ele>
        <time>2015-11-10T13:57:41Z</time>
      </trkpt>
      <trkpt lat="43.47712" lon="6.33143">
        <ele>109.73</ele>
        <time>2015-11-10T13:57:56Z</time>
      </trkpt>
      <trkpt lat="43.47722" lon="6.33157">
        <ele>110.21</ele>
        <time>2015-11-10T13:58:10Z</time>
      </trkpt>
      <trkpt lat="43.47725" lon="6.33161">
        <ele>111.17</ele>
        <time>2015-11-10T13:58:14Z</time>
      </trkpt>
      <trkpt lat="43.47731" lon="6.33173">
        <ele>110.69</ele>
        <time>2015-11-10T13:58:26Z</time>
      </trkpt>
      <trkpt lat="43.47736" lon="6.33181">
        <ele>110.69</ele>
        <time>2015-11-10T13:58:34Z</time>
      </trkpt>
      <trkpt lat="43.47745" lon="6.33194">
        <ele>111.17</ele>
        <time>2015-11-10T13:58:47Z</time>
      </trkpt>
      <trkpt lat="43.4775" lon="6.33211">
        <ele>111.65</ele>
        <time>2015-11-10T13:58:59Z</time>
      </trkpt>
      <trkpt lat="43.47752" lon="6.3322">
        <ele>111.65</ele>
        <time>2015-11-10T13:59:13Z</time>
      </trkpt>
      <trkpt lat="43.47755" lon="6.33217">
        <ele>111.65</ele>
        <time>2015-11-10T13:59:33Z</time>
      </trkpt>
      <trkpt lat="43.47756" lon="6.33216">
        <ele>111.65</ele>
        <time>2015-11-10T13:59:48Z</time>
      </trkpt>
      <trkpt lat="43.47755" lon="6.33216">
        <ele>111.65</ele>
        <time>2015-11-10T14:00:04Z</time>
      </trkpt>
      <trkpt lat="43.47754" lon="6.33216">
        <ele>111.65</ele>
        <time>2015-11-10T14:00:21Z</time>
      </trkpt>
      <trkpt lat="43.47753" lon="6.33217">
        <ele>111.65</ele>
        <time>2015-11-10T14:00:40Z</time>
      </trkpt>
      <trkpt lat="43.47752" lon="6.33216">
        <ele>111.65</ele>
        <time>2015-11-10T14:01:07Z</time>
      </trkpt>
      <trkpt lat="43.47755" lon="6.33211">
        <ele>111.17</ele>
        <time>2015-11-10T14:01:18Z</time>
      </trkpt>
      <trkpt lat="43.47754" lon="6.3321">
        <ele>111.17</ele>
        <time>2015-11-10T14:01:35Z</time>
      </trkpt>
      <trkpt lat="43.47754" lon="6.33212">
        <ele>111.17</ele>
        <time>2015-11-10T14:01:51Z</time>
      </trkpt>
      <trkpt lat="43.47754" lon="6.33211">
        <ele>111.17</ele>
        <time>2015-11-10T14:02:08Z</time>
      </trkpt>
      <trkpt lat="43.47754" lon="6.33209">
        <ele>111.17</ele>
        <time>2015-11-10T14:02:39Z</time>
      </trkpt>
      <trkpt lat="43.47754" lon="6.33209">
        <ele>110.69</ele>
        <time>2015-11-10T14:02:56Z</time>
      </trkpt>
      <trkpt lat="43.47754" lon="6.3321">
        <ele>110.69</ele>
        <time>2015-11-10T14:03:09Z</time>
      </trkpt>
      <trkpt lat="43.47753" lon="6.3321">
        <ele>111.17</ele>
        <time>2015-11-10T14:03:29Z</time>
      </trkpt>
      <trkpt lat="43.47754" lon="6.33212">
        <ele>111.17</ele>
        <time>2015-11-10T14:03:44Z</time>
      </trkpt>
      <trkpt lat="43.47753" lon="6.33214">
        <ele>111.17</ele>
        <time>2015-11-10T14:04:13Z</time>
      </trkpt>
      <trkpt lat="43.47754" lon="6.33214">
        <ele>111.17</ele>
        <time>2015-11-10T14:04:40Z</time>
      </trkpt>
      <trkpt lat="43.47753" lon="6.33215">
        <ele>111.17</ele>
        <time>2015-11-10T14:05:03Z</time>
      </trkpt>
      <trkpt lat="43.47753" lon="6.33215">
        <ele>111.17</ele>
        <time>2015-11-10T14:05:28Z</time>
      </trkpt>
      <trkpt lat="43.47753" lon="6.33215">
        <ele>111.17</ele>
        <time>2015-11-10T14:05:52Z</time>
      </trkpt>
      <trkpt lat="43.47753" lon="6.33215">
        <ele>111.17</ele>
        <time>2015-11-10T14:06:19Z</time>
      </trkpt>
      <trkpt lat="43.47752" lon="6.33219">
        <ele>111.65</ele>
        <time>2015-11-10T14:06:24Z</time>
      </trkpt>
      <trkpt lat="43.47756" lon="6.33235">
        <ele>112.13</ele>
        <time>2015-11-10T14:06:37Z</time>
      </trkpt>
      <trkpt lat="43.47762" lon="6.33249">
        <ele>112.61</ele>
        <time>2015-11-10T14:06:48Z</time>
      </trkpt>
      <trkpt lat="43.47766" lon="6.33255">
        <ele>112.61</ele>
        <time>2015-11-10T14:06:53Z</time>
      </trkpt>
      <trkpt lat="43.4777" lon="6.33266">
        <ele>112.61</ele>
        <time>2015-11-10T14:07:01Z</time>
      </trkpt>
      <trkpt lat="43.47773" lon="6.33279">
        <ele>112.13</ele>
        <time>2015-11-10T14:07:09Z</time>
      </trkpt>
      <trkpt lat="43.47779" lon="6.33292">
        <ele>112.13</ele>
        <time>2015-11-10T14:07:19Z</time>
      </trkpt>
      <trkpt lat="43.47782" lon="6.33305">
        <ele>112.13</ele>
        <time>2015-11-10T14:07:28Z</time>
      </trkpt>
      <trkpt lat="43.47783" lon="6.33311">
        <ele>112.13</ele>
        <time>2015-11-10T14:07:32Z</time>
      </trkpt>
      <trkpt lat="43.47783" lon="6.33314">
        <ele>112.13</ele>
        <time>2015-11-10T14:07:34Z</time>
      </trkpt>
      <trkpt lat="43.47785" lon="6.3332">
        <ele>112.13</ele>
        <time>2015-11-10T14:07:38Z</time>
      </trkpt>
      <trkpt lat="43.47787" lon="6.33339">
        <ele>112.13</ele>
        <time>2015-11-10T14:07:51Z</time>
      </trkpt>
      <trkpt lat="43.47789" lon="6.33343">
        <ele>112.61</ele>
        <time>2015-11-10T14:07:54Z</time>
      </trkpt>
      <trkpt lat="43.47795" lon="6.33367">
        <ele>112.61</ele>
        <time>2015-11-10T14:08:09Z</time>
      </trkpt>
      <trkpt lat="43.47795" lon="6.3337">
        <ele>113.09</ele>
        <time>2015-11-10T14:08:11Z</time>
      </trkpt>
      <trkpt lat="43.47804" lon="6.33374">
        <ele>113.09</ele>
        <time>2015-11-10T14:08:19Z</time>
      </trkpt>
      <trkpt lat="43.47812" lon="6.33376">
        <ele>113.09</ele>
        <time>2015-11-10T14:08:26Z</time>
      </trkpt>
      <trkpt lat="43.47817" lon="6.33389">
        <ele>113.09</ele>
        <time>2015-11-10T14:08:37Z</time>
      </trkpt>
      <trkpt lat="43.4782" lon="6.33411">
        <ele>113.09</ele>
        <time>2015-11-10T14:08:51Z</time>
      </trkpt>
      <trkpt lat="43.47821" lon="6.33419">
        <ele>113.09</ele>
        <time>2015-11-10T14:08:56Z</time>
      </trkpt>
      <trkpt lat="43.4783" lon="6.33439">
        <ele>113.57</ele>
        <time>2015-11-10T14:09:12Z</time>
      </trkpt>
      <trkpt lat="43.47834" lon="6.33461">
        <ele>113.57</ele>
        <time>2015-11-10T14:09:26Z</time>
      </trkpt>
      <trkpt lat="43.47839" lon="6.33477">
        <ele>114.05</ele>
        <time>2015-11-10T14:09:37Z</time>
      </trkpt>
      <trkpt lat="43.47848" lon="6.33496">
        <ele>114.05</ele>
        <time>2015-11-10T14:09:52Z</time>
      </trkpt>
      <trkpt lat="43.47858" lon="6.33516">
        <ele>114.53</ele>
        <time>2015-11-10T14:10:06Z</time>
      </trkpt>
      <trkpt lat="43.47858" lon="6.33517">
        <ele>114.05</ele>
        <time>2015-11-10T14:10:07Z</time>
      </trkpt>
      <trkpt lat="43.47869" lon="6.33526">
        <ele>114.53</ele>
        <time>2015-11-10T14:10:18Z</time>
      </trkpt>
      <trkpt lat="43.47882" lon="6.33539">
        <ele>115.01</ele>
        <time>2015-11-10T14:10:33Z</time>
      </trkpt>
      <trkpt lat="43.47894" lon="6.33545">
        <ele>115.01</ele>
        <time>2015-11-10T14:10:44Z</time>
      </trkpt>
      <trkpt lat="43.4791" lon="6.33554">
        <ele>115.5</ele>
        <time>2015-11-10T14:11:00Z</time>
      </trkpt>
      <trkpt lat="43.47927" lon="6.3356">
        <ele>115.98</ele>
        <time>2015-11-10T14:11:13Z</time>
      </trkpt>
      <trkpt lat="43.47937" lon="6.33567">
        <ele>115.98</ele>
        <time>2015-11-10T14:11:25Z</time>
      </trkpt>
      <trkpt lat="43.47949" lon="6.33575">
        <ele>116.46</ele>
        <time>2015-11-10T14:11:36Z</time>
      </trkpt>
      <trkpt lat="43.47957" lon="6.3358">
        <ele>116.46</ele>
        <time>2015-11-10T14:11:44Z</time>
      </trkpt>
      <trkpt lat="43.4796" lon="6.33583">
        <ele>116.46</ele>
        <time>2015-11-10T14:11:48Z</time>
      </trkpt>
      <trkpt lat="43.47965" lon="6.33587">
        <ele>116.46</ele>
        <time>2015-11-10T14:11:53Z</time>
      </trkpt>
      <trkpt lat="43.47966" lon="6.33589">
        <ele>116.46</ele>
        <time>2015-11-10T14:11:55Z</time>
      </trkpt>
      <trkpt lat="43.47967" lon="6.33591">
        <ele>116.46</ele>
        <time>2015-11-10T14:11:57Z</time>
      </trkpt>
      <trkpt lat="43.47975" lon="6.33598">
        <ele>116.94</ele>
        <time>2015-11-10T14:12:06Z</time>
      </trkpt>
      <trkpt lat="43.47988" lon="6.33609">
        <ele>117.42</ele>
        <time>2015-11-10T14:12:20Z</time>
      </trkpt>
      <trkpt lat="43.47997" lon="6.33618">
        <ele>117.42</ele>
        <time>2015-11-10T14:12:31Z</time>
      </trkpt>
      <trkpt lat="43.4801" lon="6.33638">
        <ele>117.9</ele>
        <time>2015-11-10T14:12:48Z</time>
      </trkpt>
      <trkpt lat="43.48022" lon="6.33651">
        <ele>117.9</ele>
        <time>2015-11-10T14:13:01Z</time>
      </trkpt>
      <trkpt lat="43.48033" lon="6.33666">
        <ele>118.86</ele>
        <time>2015-11-10T14:13:16Z</time>
      </trkpt>
      <trkpt lat="43.48043" lon="6.33678">
        <ele>118.86</ele>
        <time>2015-11-10T14:13:31Z</time>
      </trkpt>
      <trkpt lat="43.48045" lon="6.33681">
        <ele>119.34</ele>
        <time>2015-11-10T14:13:34Z</time>
      </trkpt>
      <trkpt lat="43.48056" lon="6.33692">
        <ele>119.34</ele>
        <time>2015-11-10T14:13:47Z</time>
      </trkpt>
      <trkpt lat="43.48068" lon="6.33704">
        <ele>119.34</ele>
        <time>2015-11-10T14:14:00Z</time>
      </trkpt>
      <trkpt lat="43.48069" lon="6.33705">
        <ele>119.34</ele>
        <time>2015-11-10T14:14:01Z</time>
      </trkpt>
      <trkpt lat="43.48071" lon="6.33706">
        <ele>119.34</ele>
        <time>2015-11-10T14:14:03Z</time>
      </trkpt>
      <trkpt lat="43.48073" lon="6.33708">
        <ele>119.82</ele>
        <time>2015-11-10T14:14:05Z</time>
      </trkpt>
      <trkpt lat="43.48083" lon="6.33717">
        <ele>119.82</ele>
        <time>2015-11-10T14:14:17Z</time>
      </trkpt>
      <trkpt lat="43.48087" lon="6.33719">
        <ele>119.82</ele>
        <time>2015-11-10T14:14:21Z</time>
      </trkpt>
      <trkpt lat="43.48089" lon="6.33721">
        <ele>119.82</ele>
        <time>2015-11-10T14:14:23Z</time>
      </trkpt>
      <trkpt lat="43.48098" lon="6.33727">
        <ele>120.3</ele>
        <time>2015-11-10T14:14:31Z</time>
      </trkpt>
      <trkpt lat="43.48113" lon="6.33738">
        <ele>120.3</ele>
        <time>2015-11-10T14:14:46Z</time>
      </trkpt>
      <trkpt lat="43.48125" lon="6.33742">
        <ele>120.78</ele>
        <time>2015-11-10T14:14:56Z</time>
      </trkpt>
      <trkpt lat="43.4813" lon="6.33743">
        <ele>120.78</ele>
        <time>2015-11-10T14:15:01Z</time>
      </trkpt>
      <trkpt lat="43.48136" lon="6.33741">
        <ele>120.78</ele>
        <time>2015-11-10T14:15:05Z</time>
      </trkpt>
      <trkpt lat="43.48151" lon="6.33736">
        <ele>121.26</ele>
        <time>2015-11-10T14:15:19Z</time>
      </trkpt>
      <trkpt lat="43.48162" lon="6.33725">
        <ele>121.74</ele>
        <time>2015-11-10T14:15:31Z</time>
      </trkpt>
      <trkpt lat="43.4817" lon="6.33709">
        <ele>121.74</ele>
        <time>2015-11-10T14:15:44Z</time>
      </trkpt>
      <trkpt lat="43.4818" lon="6.33695">
        <ele>122.22</ele>
        <time>2015-11-10T14:15:57Z</time>
      </trkpt>
      <trkpt lat="43.48192" lon="6.33678">
        <ele>122.71</ele>
        <time>2015-11-10T14:16:13Z</time>
      </trkpt>
      <trkpt lat="43.48194" lon="6.33676">
        <ele>123.67</ele>
        <time>2015-11-10T14:16:15Z</time>
      </trkpt>
      <trkpt lat="43.48204" lon="6.33654">
        <ele>123.19</ele>
        <time>2015-11-10T14:16:29Z</time>
      </trkpt>
      <trkpt lat="43.48204" lon="6.33653">
        <ele>123.19</ele>
        <time>2015-11-10T14:16:30Z</time>
      </trkpt>
      <trkpt lat="43.48214" lon="6.33638">
        <ele>123.19</ele>
        <time>2015-11-10T14:16:44Z</time>
      </trkpt>
      <trkpt lat="43.48224" lon="6.33621">
        <ele>123.67</ele>
        <time>2015-11-10T14:17:01Z</time>
      </trkpt>
      <trkpt lat="43.48233" lon="6.33612">
        <ele>124.15</ele>
        <time>2015-11-10T14:17:13Z</time>
      </trkpt>
      <trkpt lat="43.48236" lon="6.33609">
        <ele>124.15</ele>
        <time>2015-11-10T14:17:19Z</time>
      </trkpt>
      <trkpt lat="43.48244" lon="6.33602">
        <ele>124.15</ele>
        <time>2015-11-10T14:17:32Z</time>
      </trkpt>
      <trkpt lat="43.48247" lon="6.33597">
        <ele>124.15</ele>
        <time>2015-11-10T14:17:46Z</time>
      </trkpt>
      <trkpt lat="43.48247" lon="6.33597">
        <ele>124.15</ele>
        <time>2015-11-10T14:17:48Z</time>
      </trkpt>
      <trkpt lat="43.48249" lon="6.33597">
        <ele>124.63</ele>
        <time>2015-11-10T14:17:51Z</time>
      </trkpt>
      <trkpt lat="43.48254" lon="6.33603">
        <ele>124.15</ele>
        <time>2015-11-10T14:18:05Z</time>
      </trkpt>
      <trkpt lat="43.48252" lon="6.33595">
        <ele>124.63</ele>
        <time>2015-11-10T14:18:18Z</time>
      </trkpt>
      <trkpt lat="43.48253" lon="6.33589">
        <ele>124.15</ele>
        <time>2015-11-10T14:18:29Z</time>
      </trkpt>
      <trkpt lat="43.48251" lon="6.33588">
        <ele>124.15</ele>
        <time>2015-11-10T14:18:44Z</time>
      </trkpt>
      <trkpt lat="43.48247" lon="6.33588">
        <ele>124.15</ele>
        <time>2015-11-10T14:19:12Z</time>
      </trkpt>
      <trkpt lat="43.48247" lon="6.33591">
        <ele>124.15</ele>
        <time>2015-11-10T14:19:27Z</time>
      </trkpt>
      <trkpt lat="43.48247" lon="6.3359">
        <ele>124.15</ele>
        <time>2015-11-10T14:19:42Z</time>
      </trkpt>
      <trkpt lat="43.48247" lon="6.3359">
        <ele>123.67</ele>
        <time>2015-11-10T14:20:04Z</time>
      </trkpt>
      <trkpt lat="43.48247" lon="6.3359">
        <ele>123.67</ele>
        <time>2015-11-10T14:20:23Z</time>
      </trkpt>
      <trkpt lat="43.48246" lon="6.33591">
        <ele>123.67</ele>
        <time>2015-11-10T14:20:34Z</time>
      </trkpt>
      <trkpt lat="43.48246" lon="6.33592">
        <ele>123.67</ele>
        <time>2015-11-10T14:20:48Z</time>
      </trkpt>
      <trkpt lat="43.48246" lon="6.33592">
        <ele>123.19</ele>
        <time>2015-11-10T14:21:03Z</time>
      </trkpt>
      <trkpt lat="43.48247" lon="6.33592">
        <ele>123.19</ele>
        <time>2015-11-10T14:21:19Z</time>
      </trkpt>
      <trkpt lat="43.48248" lon="6.33592">
        <ele>123.19</ele>
        <time>2015-11-10T14:21:40Z</time>
      </trkpt>
      <trkpt lat="43.48247" lon="6.33593">
        <ele>123.19</ele>
        <time>2015-11-10T14:21:54Z</time>
      </trkpt>
      <trkpt lat="43.48247" lon="6.33593">
        <ele>123.19</ele>
        <time>2015-11-10T14:22:07Z</time>
      </trkpt>
      <trkpt lat="43.48249" lon="6.33595">
        <ele>123.19</ele>
        <time>2015-11-10T14:22:24Z</time>
      </trkpt>
      <trkpt lat="43.48249" lon="6.33596">
        <ele>123.19</ele>
        <time>2015-11-10T14:22:40Z</time>
      </trkpt>
      <trkpt lat="43.48249" lon="6.33594">
        <ele>123.19</ele>
        <time>2015-11-10T14:23:00Z</time>
      </trkpt>
      <trkpt lat="43.4825" lon="6.33595">
        <ele>123.19</ele>
        <time>2015-11-10T14:23:24Z</time>
      </trkpt>
      <trkpt lat="43.48249" lon="6.33594">
        <ele>123.19</ele>
        <time>2015-11-10T14:23:52Z</time>
      </trkpt>
      <trkpt lat="43.48249" lon="6.33594">
        <ele>123.19</ele>
        <time>2015-11-10T14:24:16Z</time>
      </trkpt>
      <trkpt lat="43.4825" lon="6.33594">
        <ele>122.71</ele>
        <time>2015-11-10T14:24:49Z</time>
      </trkpt>
      <trkpt lat="43.4825" lon="6.33595">
        <ele>122.71</ele>
        <time>2015-11-10T14:25:18Z</time>
      </trkpt>
      <trkpt lat="43.48248" lon="6.33595">
        <ele>122.71</ele>
        <time>2015-11-10T14:25:34Z</time>
      </trkpt>
      <trkpt lat="43.4824" lon="6.33607">
        <ele>122.22</ele>
        <time>2015-11-10T14:25:49Z</time>
      </trkpt>
      <trkpt lat="43.48239" lon="6.33608">
        <ele>122.22</ele>
        <time>2015-11-10T14:25:50Z</time>
      </trkpt>
      <trkpt lat="43.48232" lon="6.33623">
        <ele>122.71</ele>
        <time>2015-11-10T14:26:04Z</time>
      </trkpt>
      <trkpt lat="43.48228" lon="6.33642">
        <ele>123.19</ele>
        <time>2015-11-10T14:26:17Z</time>
      </trkpt>
      <trkpt lat="43.48226" lon="6.33658">
        <ele>123.67</ele>
        <time>2015-11-10T14:26:28Z</time>
      </trkpt>
      <trkpt lat="43.4822" lon="6.33674">
        <ele>123.67</ele>
        <time>2015-11-10T14:26:41Z</time>
      </trkpt>
      <trkpt lat="43.48218" lon="6.33685">
        <ele>123.67</ele>
        <time>2015-11-10T14:26:49Z</time>
      </trkpt>
      <trkpt lat="43.48219" lon="6.3369">
        <ele>123.19</ele>
        <time>2015-11-10T14:26:53Z</time>
      </trkpt>
      <trkpt lat="43.48218" lon="6.33693">
        <ele>123.67</ele>
        <time>2015-11-10T14:26:55Z</time>
      </trkpt>
      <trkpt lat="43.48219" lon="6.33699">
        <ele>123.67</ele>
        <time>2015-11-10T14:26:59Z</time>
      </trkpt>
      <trkpt lat="43.48215" lon="6.33712">
        <ele>123.67</ele>
        <time>2015-11-10T14:27:09Z</time>
      </trkpt>
      <trkpt lat="43.48212" lon="6.3372">
        <ele>123.67</ele>
        <time>2015-11-10T14:27:16Z</time>
      </trkpt>
      <trkpt lat="43.48212" lon="6.33725">
        <ele>123.67</ele>
        <time>2015-11-10T14:27:20Z</time>
      </trkpt>
      <trkpt lat="43.48209" lon="6.33731">
        <ele>124.15</ele>
        <time>2015-11-10T14:27:25Z</time>
      </trkpt>
      <trkpt lat="43.48208" lon="6.33743">
        <ele>125.11</ele>
        <time>2015-11-10T14:27:35Z</time>
      </trkpt>
      <trkpt lat="43.48209" lon="6.33759">
        <ele>127.03</ele>
        <time>2015-11-10T14:27:49Z</time>
      </trkpt>
      <trkpt lat="43.48211" lon="6.33763">
        <ele>127.51</ele>
        <time>2015-11-10T14:27:55Z</time>
      </trkpt>
      <trkpt lat="43.48218" lon="6.33772">
        <ele>129.92</ele>
        <time>2015-11-10T14:28:08Z</time>
      </trkpt>
      <trkpt lat="43.48226" lon="6.33774">
        <ele>131.84</ele>
        <time>2015-11-10T14:28:22Z</time>
      </trkpt>
      <trkpt lat="43.48227" lon="6.33782">
        <ele>132.8</ele>
        <time>2015-11-10T14:28:38Z</time>
      </trkpt>
      <trkpt lat="43.48223" lon="6.33782">
        <ele>133.28</ele>
        <time>2015-11-10T14:28:55Z</time>
      </trkpt>
      <trkpt lat="43.48216" lon="6.33781">
        <ele>134.72</ele>
        <time>2015-11-10T14:29:08Z</time>
      </trkpt>
      <trkpt lat="43.48206" lon="6.33779">
        <ele>135.68</ele>
        <time>2015-11-10T14:29:19Z</time>
      </trkpt>
      <trkpt lat="43.48195" lon="6.33783">
        <ele>137.61</ele>
        <time>2015-11-10T14:29:34Z</time>
      </trkpt>
      <trkpt lat="43.48192" lon="6.33785">
        <ele>137.61</ele>
        <time>2015-11-10T14:29:38Z</time>
      </trkpt>
      <trkpt lat="43.48183" lon="6.33787">
        <ele>139.53</ele>
        <time>2015-11-10T14:29:52Z</time>
      </trkpt>
      <trkpt lat="43.48187" lon="6.33797">
        <ele>140.49</ele>
        <time>2015-11-10T14:30:06Z</time>
      </trkpt>
      <trkpt lat="43.48196" lon="6.33805">
        <ele>141.93</ele>
        <time>2015-11-10T14:30:20Z</time>
      </trkpt>
      <trkpt lat="43.482" lon="6.3381">
        <ele>142.41</ele>
        <time>2015-11-10T14:30:40Z</time>
      </trkpt>
      <trkpt lat="43.48202" lon="6.33811">
        <ele>142.89</ele>
        <time>2015-11-10T14:30:55Z</time>
      </trkpt>
      <trkpt lat="43.4821" lon="6.33816">
        <ele>143.85</ele>
        <time>2015-11-10T14:31:08Z</time>
      </trkpt>
      <trkpt lat="43.48216" lon="6.33825">
        <ele>145.3</ele>
        <time>2015-11-10T14:31:19Z</time>
      </trkpt>
      <trkpt lat="43.48225" lon="6.33834">
        <ele>146.74</ele>
        <time>2015-11-10T14:31:33Z</time>
      </trkpt>
      <trkpt lat="43.48229" lon="6.33845">
        <ele>148.18</ele>
        <time>2015-11-10T14:31:46Z</time>
      </trkpt>
      <trkpt lat="43.48229" lon="6.3385">
        <ele>148.18</ele>
        <time>2015-11-10T14:31:50Z</time>
      </trkpt>
      <trkpt lat="43.48231" lon="6.33861">
        <ele>150.1</ele>
        <time>2015-11-10T14:32:05Z</time>
      </trkpt>
      <trkpt lat="43.4823" lon="6.33871">
        <ele>152.03</ele>
        <time>2015-11-10T14:32:17Z</time>
      </trkpt>
      <trkpt lat="43.48227" lon="6.33882">
        <ele>153.47</ele>
        <time>2015-11-10T14:32:31Z</time>
      </trkpt>
      <trkpt lat="43.48224" lon="6.33891">
        <ele>154.91</ele>
        <time>2015-11-10T14:32:43Z</time>
      </trkpt>
      <trkpt lat="43.4822" lon="6.33887">
        <ele>155.87</ele>
        <time>2015-11-10T14:32:55Z</time>
      </trkpt>
      <trkpt lat="43.48213" lon="6.3388">
        <ele>157.31</ele>
        <time>2015-11-10T14:33:11Z</time>
      </trkpt>
      <trkpt lat="43.48203" lon="6.33882">
        <ele>158.75</ele>
        <time>2015-11-10T14:33:24Z</time>
      </trkpt>
      <trkpt lat="43.48207" lon="6.33894">
        <ele>158.75</ele>
        <time>2015-11-10T14:33:35Z</time>
      </trkpt>
      <trkpt lat="43.48207" lon="6.33895">
        <ele>158.75</ele>
        <time>2015-11-10T14:33:36Z</time>
      </trkpt>
      <trkpt lat="43.48212" lon="6.33908">
        <ele>158.75</ele>
        <time>2015-11-10T14:33:49Z</time>
      </trkpt>
      <trkpt lat="43.48219" lon="6.33925">
        <ele>158.75</ele>
        <time>2015-11-10T14:34:06Z</time>
      </trkpt>
      <trkpt lat="43.48229" lon="6.33932">
        <ele>158.75</ele>
        <time>2015-11-10T14:34:18Z</time>
      </trkpt>
      <trkpt lat="43.48238" lon="6.33928">
        <ele>158.27</ele>
        <time>2015-11-10T14:34:32Z</time>
      </trkpt>
      <trkpt lat="43.4825" lon="6.33923">
        <ele>158.75</ele>
        <time>2015-11-10T14:34:47Z</time>
      </trkpt>
      <trkpt lat="43.48263" lon="6.33917">
        <ele>159.72</ele>
        <time>2015-11-10T14:35:03Z</time>
      </trkpt>
      <trkpt lat="43.48273" lon="6.3391">
        <ele>160.2</ele>
        <time>2015-11-10T14:35:18Z</time>
      </trkpt>
      <trkpt lat="43.48284" lon="6.33903">
        <ele>161.16</ele>
        <time>2015-11-10T14:35:34Z</time>
      </trkpt>
      <trkpt lat="43.48293" lon="6.33897">
        <ele>162.6</ele>
        <time>2015-11-10T14:35:49Z</time>
      </trkpt>
      <trkpt lat="43.48301" lon="6.33892">
        <ele>164.04</ele>
        <time>2015-11-10T14:36:02Z</time>
      </trkpt>
      <trkpt lat="43.48301" lon="6.33891">
        <ele>164.04</ele>
        <time>2015-11-10T14:36:03Z</time>
      </trkpt>
      <trkpt lat="43.48309" lon="6.33884">
        <ele>165.96</ele>
        <time>2015-11-10T14:36:16Z</time>
      </trkpt>
      <trkpt lat="43.48317" lon="6.33877">
        <ele>167.89</ele>
        <time>2015-11-10T14:36:29Z</time>
      </trkpt>
      <trkpt lat="43.48324" lon="6.33865">
        <ele>168.85</ele>
        <time>2015-11-10T14:36:44Z</time>
      </trkpt>
      <trkpt lat="43.48326" lon="6.33864">
        <ele>169.33</ele>
        <time>2015-11-10T14:36:50Z</time>
      </trkpt>
      <trkpt lat="43.48339" lon="6.33854">
        <ele>170.77</ele>
        <time>2015-11-10T14:37:06Z</time>
      </trkpt>
      <trkpt lat="43.48341" lon="6.33851">
        <ele>171.25</ele>
        <time>2015-11-10T14:37:10Z</time>
      </trkpt>
      <trkpt lat="43.48352" lon="6.33843">
        <ele>173.17</ele>
        <time>2015-11-10T14:37:27Z</time>
      </trkpt>
      <trkpt lat="43.48357" lon="6.33837">
        <ele>173.17</ele>
        <time>2015-11-10T14:37:42Z</time>
      </trkpt>
      <trkpt lat="43.48355" lon="6.33832">
        <ele>173.17</ele>
        <time>2015-11-10T14:38:02Z</time>
      </trkpt>
      <trkpt lat="43.48355" lon="6.33833">
        <ele>172.69</ele>
        <time>2015-11-10T14:38:19Z</time>
      </trkpt>
      <trkpt lat="43.48355" lon="6.33832">
        <ele>173.17</ele>
        <time>2015-11-10T14:38:41Z</time>
      </trkpt>
      <trkpt lat="43.48355" lon="6.33833">
        <ele>172.21</ele>
        <time>2015-11-10T14:39:03Z</time>
      </trkpt>
      <trkpt lat="43.48355" lon="6.33834">
        <ele>172.69</ele>
        <time>2015-11-10T14:39:34Z</time>
      </trkpt>
      <trkpt lat="43.48356" lon="6.33833">
        <ele>173.17</ele>
        <time>2015-11-10T14:39:49Z</time>
      </trkpt>
      <trkpt lat="43.48356" lon="6.33832">
        <ele>173.17</ele>
        <time>2015-11-10T14:39:50Z</time>
      </trkpt>
      <trkpt lat="43.4836" lon="6.33817">
        <ele>170.77</ele>
        <time>2015-11-10T14:40:03Z</time>
      </trkpt>
      <trkpt lat="43.4836" lon="6.33816">
        <ele>170.77</ele>
        <time>2015-11-10T14:40:04Z</time>
      </trkpt>
      <trkpt lat="43.48365" lon="6.33799">
        <ele>170.29</ele>
        <time>2015-11-10T14:40:16Z</time>
      </trkpt>
      <trkpt lat="43.48366" lon="6.33775">
        <ele>168.37</ele>
        <time>2015-11-10T14:40:30Z</time>
      </trkpt>
      <trkpt lat="43.4837" lon="6.33755">
        <ele>165.96</ele>
        <time>2015-11-10T14:40:45Z</time>
      </trkpt>
      <trkpt lat="43.48374" lon="6.33743">
        <ele>164.52</ele>
        <time>2015-11-10T14:40:58Z</time>
      </trkpt>
      <trkpt lat="43.48378" lon="6.33727">
        <ele>163.08</ele>
        <time>2015-11-10T14:41:09Z</time>
      </trkpt>
      <trkpt lat="43.48382" lon="6.33713">
        <ele>161.16</ele>
        <time>2015-11-10T14:41:20Z</time>
      </trkpt>
      <trkpt lat="43.48381" lon="6.3371">
        <ele>160.68</ele>
        <time>2015-11-10T14:41:23Z</time>
      </trkpt>
      <trkpt lat="43.48378" lon="6.33702">
        <ele>160.68</ele>
        <time>2015-11-10T14:41:28Z</time>
      </trkpt>
      <trkpt lat="43.48366" lon="6.33689">
        <ele>161.16</ele>
        <time>2015-11-10T14:41:42Z</time>
      </trkpt>
      <trkpt lat="43.48364" lon="6.33674">
        <ele>162.6</ele>
        <time>2015-11-10T14:41:56Z</time>
      </trkpt>
      <trkpt lat="43.48362" lon="6.33663">
        <ele>163.56</ele>
        <time>2015-11-10T14:42:05Z</time>
      </trkpt>
      <trkpt lat="43.48356" lon="6.33655">
        <ele>163.56</ele>
        <time>2015-11-10T14:42:15Z</time>
      </trkpt>
      <trkpt lat="43.48343" lon="6.3365">
        <ele>163.08</ele>
        <time>2015-11-10T14:42:29Z</time>
      </trkpt>
      <trkpt lat="43.48332" lon="6.33655">
        <ele>162.6</ele>
        <time>2015-11-10T14:42:42Z</time>
      </trkpt>
      <trkpt lat="43.48326" lon="6.33658">
        <ele>161.64</ele>
        <time>2015-11-10T14:42:54Z</time>
      </trkpt>
      <trkpt lat="43.48323" lon="6.3366">
        <ele>161.64</ele>
        <time>2015-11-10T14:43:06Z</time>
      </trkpt>
      <trkpt lat="43.48323" lon="6.33661">
        <ele>161.64</ele>
        <time>2015-11-10T14:43:31Z</time>
      </trkpt>
      <trkpt lat="43.48324" lon="6.33661">
        <ele>161.64</ele>
        <time>2015-11-10T14:43:55Z</time>
      </trkpt>
      <trkpt lat="43.48324" lon="6.33662">
        <ele>161.64</ele>
        <time>2015-11-10T14:44:17Z</time>
      </trkpt>
      <trkpt lat="43.48324" lon="6.33662">
        <ele>161.64</ele>
        <time>2015-11-10T14:44:40Z</time>
      </trkpt>
      <trkpt lat="43.48325" lon="6.33663">
        <ele>161.64</ele>
        <time>2015-11-10T14:45:02Z</time>
      </trkpt>
      <trkpt lat="43.48327" lon="6.33663">
        <ele>161.64</ele>
        <time>2015-11-10T14:45:20Z</time>
      </trkpt>
      <trkpt lat="43.4833" lon="6.3366">
        <ele>161.64</ele>
        <time>2015-11-10T14:45:38Z</time>
      </trkpt>
      <trkpt lat="43.4833" lon="6.33662">
        <ele>163.08</ele>
        <time>2015-11-10T14:45:43Z</time>
      </trkpt>
      <trkpt lat="43.48329" lon="6.33666">
        <ele>163.08</ele>
        <time>2015-11-10T14:45:47Z</time>
      </trkpt>
      <trkpt lat="43.48329" lon="6.33677">
        <ele>163.08</ele>
        <time>2015-11-10T14:46:02Z</time>
      </trkpt>
      <trkpt lat="43.48327" lon="6.33682">
        <ele>161.16</ele>
        <time>2015-11-10T14:46:07Z</time>
      </trkpt>
      <trkpt lat="43.48324" lon="6.3367">
        <ele>161.16</ele>
        <time>2015-11-10T14:46:21Z</time>
      </trkpt>
      <trkpt lat="43.48326" lon="6.33668">
        <ele>161.64</ele>
        <time>2015-11-10T14:46:24Z</time>
      </trkpt>
      <trkpt lat="43.48331" lon="6.33661">
        <ele>161.64</ele>
        <time>2015-11-10T14:46:32Z</time>
      </trkpt>
      <trkpt lat="43.48329" lon="6.33659">
        <ele>161.64</ele>
        <time>2015-11-10T14:46:43Z</time>
      </trkpt>
      <trkpt lat="43.48326" lon="6.33663">
        <ele>161.64</ele>
        <time>2015-11-10T14:46:56Z</time>
      </trkpt>
      <trkpt lat="43.48325" lon="6.33662">
        <ele>161.64</ele>
        <time>2015-11-10T14:47:22Z</time>
      </trkpt>
      <trkpt lat="43.48324" lon="6.3366">
        <ele>161.64</ele>
        <time>2015-11-10T14:47:55Z</time>
      </trkpt>
      <trkpt lat="43.48324" lon="6.3366">
        <ele>161.64</ele>
        <time>2015-11-10T14:48:23Z</time>
      </trkpt>
      <trkpt lat="43.48324" lon="6.3366">
        <ele>161.64</ele>
        <time>2015-11-10T14:48:56Z</time>
      </trkpt>
      <trkpt lat="43.48324" lon="6.3366">
        <ele>161.64</ele>
        <time>2015-11-10T14:49:30Z</time>
      </trkpt>
      <trkpt lat="43.48324" lon="6.33661">
        <ele>161.64</ele>
        <time>2015-11-10T14:49:59Z</time>
      </trkpt>
      <trkpt lat="43.48324" lon="6.33661">
        <ele>161.64</ele>
        <time>2015-11-10T14:50:30Z</time>
      </trkpt>
      <trkpt lat="43.48325" lon="6.33661">
        <ele>161.64</ele>
        <time>2015-11-10T14:50:59Z</time>
      </trkpt>
      <trkpt lat="43.48325" lon="6.33662">
        <ele>161.64</ele>
        <time>2015-11-10T14:51:25Z</time>
      </trkpt>
      <trkpt lat="43.48324" lon="6.33663">
        <ele>161.64</ele>
        <time>2015-11-10T14:51:45Z</time>
      </trkpt>
      <trkpt lat="43.48324" lon="6.33664">
        <ele>161.64</ele>
        <time>2015-11-10T14:52:07Z</time>
      </trkpt>
      <trkpt lat="43.48326" lon="6.33663">
        <ele>162.12</ele>
        <time>2015-11-10T14:52:25Z</time>
      </trkpt>
      <trkpt lat="43.48328" lon="6.33662">
        <ele>162.12</ele>
        <time>2015-11-10T14:52:31Z</time>
      </trkpt>
      <trkpt lat="43.4833" lon="6.33659">
        <ele>162.12</ele>
        <time>2015-11-10T14:52:34Z</time>
      </trkpt>
      <trkpt lat="43.48333" lon="6.33652">
        <ele>161.64</ele>
        <time>2015-11-10T14:52:40Z</time>
      </trkpt>
      <trkpt lat="43.48324" lon="6.33649">
        <ele>160.68</ele>
        <time>2015-11-10T14:52:51Z</time>
      </trkpt>
      <trkpt lat="43.48322" lon="6.33653">
        <ele>160.68</ele>
        <time>2015-11-10T14:52:55Z</time>
      </trkpt>
      <trkpt lat="43.48317" lon="6.33662">
        <ele>159.72</ele>
        <time>2015-11-10T14:53:04Z</time>
      </trkpt>
      <trkpt lat="43.48317" lon="6.33668">
        <ele>159.24</ele>
        <time>2015-11-10T14:53:08Z</time>
      </trkpt>
      <trkpt lat="43.48322" lon="6.33682">
        <ele>158.75</ele>
        <time>2015-11-10T14:53:21Z</time>
      </trkpt>
      <trkpt lat="43.48332" lon="6.33691">
        <ele>159.24</ele>
        <time>2015-11-10T14:53:34Z</time>
      </trkpt>
      <trkpt lat="43.48344" lon="6.33698">
        <ele>160.2</ele>
        <time>2015-11-10T14:53:49Z</time>
      </trkpt>
      <trkpt lat="43.48354" lon="6.33699">
        <ele>161.16</ele>
        <time>2015-11-10T14:54:02Z</time>
      </trkpt>
      <trkpt lat="43.48366" lon="6.33707">
        <ele>161.16</ele>
        <time>2015-11-10T14:54:18Z</time>
      </trkpt>
      <trkpt lat="43.48368" lon="6.33705">
        <ele>161.16</ele>
        <time>2015-11-10T14:54:38Z</time>
      </trkpt>
      <trkpt lat="43.4837" lon="6.33702">
        <ele>161.16</ele>
        <time>2015-11-10T14:55:11Z</time>
      </trkpt>
      <trkpt lat="43.48371" lon="6.33702">
        <ele>161.16</ele>
        <time>2015-11-10T14:55:43Z</time>
      </trkpt>
      <trkpt lat="43.48371" lon="6.33702">
        <ele>160.68</ele>
        <time>2015-11-10T14:56:14Z</time>
      </trkpt>
      <trkpt lat="43.48378" lon="6.33709">
        <ele>160.2</ele>
        <time>2015-11-10T14:56:27Z</time>
      </trkpt>
      <trkpt lat="43.48378" lon="6.33718">
        <ele>162.6</ele>
        <time>2015-11-10T14:56:40Z</time>
      </trkpt>
      <trkpt lat="43.48377" lon="6.33727">
        <ele>163.08</ele>
        <time>2015-11-10T14:56:55Z</time>
      </trkpt>
      <trkpt lat="43.4837" lon="6.33739">
        <ele>164.52</ele>
        <time>2015-11-10T14:57:10Z</time>
      </trkpt>
      <trkpt lat="43.48368" lon="6.33743">
        <ele>165</ele>
        <time>2015-11-10T14:57:13Z</time>
      </trkpt>
      <trkpt lat="43.48365" lon="6.33763">
        <ele>166.93</ele>
        <time>2015-11-10T14:57:26Z</time>
      </trkpt>
      <trkpt lat="43.4836" lon="6.33787">
        <ele>168.85</ele>
        <time>2015-11-10T14:57:41Z</time>
      </trkpt>
      <trkpt lat="43.48353" lon="6.33811">
        <ele>170.29</ele>
        <time>2015-11-10T14:57:57Z</time>
      </trkpt>
      <trkpt lat="43.48352" lon="6.33814">
        <ele>170.29</ele>
        <time>2015-11-10T14:58:00Z</time>
      </trkpt>
      <trkpt lat="43.48353" lon="6.33831">
        <ele>172.69</ele>
        <time>2015-11-10T14:58:13Z</time>
      </trkpt>
      <trkpt lat="43.48363" lon="6.33843">
        <ele>175.1</ele>
        <time>2015-11-10T14:58:27Z</time>
      </trkpt>
      <trkpt lat="43.48375" lon="6.3385">
        <ele>177.02</ele>
        <time>2015-11-10T14:58:40Z</time>
      </trkpt>
      <trkpt lat="43.48378" lon="6.3385">
        <ele>177.02</ele>
        <time>2015-11-10T14:58:57Z</time>
      </trkpt>
      <trkpt lat="43.4838" lon="6.3385">
        <ele>177.02</ele>
        <time>2015-11-10T14:59:15Z</time>
      </trkpt>
      <trkpt lat="43.48388" lon="6.33859">
        <ele>176.54</ele>
        <time>2015-11-10T14:59:31Z</time>
      </trkpt>
      <trkpt lat="43.48394" lon="6.33872">
        <ele>177.02</ele>
        <time>2015-11-10T14:59:48Z</time>
      </trkpt>
      <trkpt lat="43.48394" lon="6.33889">
        <ele>178.46</ele>
        <time>2015-11-10T15:00:04Z</time>
      </trkpt>
      <trkpt lat="43.48396" lon="6.339">
        <ele>178.94</ele>
        <time>2015-11-10T15:00:12Z</time>
      </trkpt>
      <trkpt lat="43.48401" lon="6.33921">
        <ele>178.46</ele>
        <time>2015-11-10T15:00:28Z</time>
      </trkpt>
      <trkpt lat="43.48405" lon="6.33935">
        <ele>178.46</ele>
        <time>2015-11-10T15:00:40Z</time>
      </trkpt>
      <trkpt lat="43.48408" lon="6.33953">
        <ele>178.46</ele>
        <time>2015-11-10T15:00:54Z</time>
      </trkpt>
      <trkpt lat="43.48413" lon="6.33971">
        <ele>178.46</ele>
        <time>2015-11-10T15:01:06Z</time>
      </trkpt>
      <trkpt lat="43.48415" lon="6.33989">
        <ele>178.94</ele>
        <time>2015-11-10T15:01:22Z</time>
      </trkpt>
      <trkpt lat="43.48411" lon="6.34009">
        <ele>178.94</ele>
        <time>2015-11-10T15:01:38Z</time>
      </trkpt>
      <trkpt lat="43.48408" lon="6.34028">
        <ele>177.98</ele>
        <time>2015-11-10T15:01:53Z</time>
      </trkpt>
      <trkpt lat="43.48407" lon="6.34041">
        <ele>176.54</ele>
        <time>2015-11-10T15:02:05Z</time>
      </trkpt>
      <trkpt lat="43.48406" lon="6.34044">
        <ele>176.06</ele>
        <time>2015-11-10T15:02:09Z</time>
      </trkpt>
      <trkpt lat="43.484" lon="6.34064">
        <ele>174.14</ele>
        <time>2015-11-10T15:02:23Z</time>
      </trkpt>
      <trkpt lat="43.48397" lon="6.34075">
        <ele>173.17</ele>
        <time>2015-11-10T15:02:31Z</time>
      </trkpt>
      <trkpt lat="43.48396" lon="6.34076">
        <ele>172.69</ele>
        <time>2015-11-10T15:02:33Z</time>
      </trkpt>
      <trkpt lat="43.48387" lon="6.34086">
        <ele>171.73</ele>
        <time>2015-11-10T15:02:49Z</time>
      </trkpt>
      <trkpt lat="43.48372" lon="6.34098">
        <ele>171.25</ele>
        <time>2015-11-10T15:03:05Z</time>
      </trkpt>
      <trkpt lat="43.4836" lon="6.34108">
        <ele>170.77</ele>
        <time>2015-11-10T15:03:19Z</time>
      </trkpt>
      <trkpt lat="43.48352" lon="6.34122">
        <ele>170.77</ele>
        <time>2015-11-10T15:03:34Z</time>
      </trkpt>
      <trkpt lat="43.48341" lon="6.34134">
        <ele>170.77</ele>
        <time>2015-11-10T15:03:47Z</time>
      </trkpt>
      <trkpt lat="43.48333" lon="6.34144">
        <ele>170.29</ele>
        <time>2015-11-10T15:03:57Z</time>
      </trkpt>
      <trkpt lat="43.4832" lon="6.34161">
        <ele>168.85</ele>
        <time>2015-11-10T15:04:13Z</time>
      </trkpt>
      <trkpt lat="43.48315" lon="6.3417">
        <ele>166.93</ele>
        <time>2015-11-10T15:04:27Z</time>
      </trkpt>
      <trkpt lat="43.48315" lon="6.34171">
        <ele>166.45</ele>
        <time>2015-11-10T15:04:28Z</time>
      </trkpt>
      <trkpt lat="43.48308" lon="6.3418">
        <ele>165</ele>
        <time>2015-11-10T15:04:41Z</time>
      </trkpt>
      <trkpt lat="43.483" lon="6.34191">
        <ele>165</ele>
        <time>2015-11-10T15:04:52Z</time>
      </trkpt>
      <trkpt lat="43.48289" lon="6.34202">
        <ele>164.52</ele>
        <time>2015-11-10T15:05:05Z</time>
      </trkpt>
      <trkpt lat="43.48279" lon="6.34222">
        <ele>163.56</ele>
        <time>2015-11-10T15:05:20Z</time>
      </trkpt>
      <trkpt lat="43.48274" lon="6.34239">
        <ele>161.16</ele>
        <time>2015-11-10T15:05:35Z</time>
      </trkpt>
      <trkpt lat="43.48266" lon="6.34252">
        <ele>160.68</ele>
        <time>2015-11-10T15:05:48Z</time>
      </trkpt>
      <trkpt lat="43.48253" lon="6.34259">
        <ele>160.68</ele>
        <time>2015-11-10T15:06:01Z</time>
      </trkpt>
      <trkpt lat="43.48249" lon="6.34261">
        <ele>160.68</ele>
        <time>2015-11-10T15:06:04Z</time>
      </trkpt>
      <trkpt lat="43.48237" lon="6.3427">
        <ele>160.68</ele>
        <time>2015-11-10T15:06:18Z</time>
      </trkpt>
      <trkpt lat="43.48223" lon="6.34288">
        <ele>159.72</ele>
        <time>2015-11-10T15:06:35Z</time>
      </trkpt>
      <trkpt lat="43.48209" lon="6.34298">
        <ele>159.72</ele>
        <time>2015-11-10T15:06:50Z</time>
      </trkpt>
      <trkpt lat="43.48202" lon="6.34307">
        <ele>158.75</ele>
        <time>2015-11-10T15:06:58Z</time>
      </trkpt>
      <trkpt lat="43.48202" lon="6.3431">
        <ele>158.27</ele>
        <time>2015-11-10T15:07:00Z</time>
      </trkpt>
      <trkpt lat="43.48204" lon="6.34314">
        <ele>158.27</ele>
        <time>2015-11-10T15:07:03Z</time>
      </trkpt>
      <trkpt lat="43.48214" lon="6.34329">
        <ele>156.35</ele>
        <time>2015-11-10T15:07:17Z</time>
      </trkpt>
      <trkpt lat="43.48224" lon="6.3434">
        <ele>154.91</ele>
        <time>2015-11-10T15:07:29Z</time>
      </trkpt>
      <trkpt lat="43.48228" lon="6.34343">
        <ele>154.43</ele>
        <time>2015-11-10T15:07:33Z</time>
      </trkpt>
      <trkpt lat="43.48232" lon="6.34335">
        <ele>155.39</ele>
        <time>2015-11-10T15:07:46Z</time>
      </trkpt>
      <trkpt lat="43.4823" lon="6.34338">
        <ele>154.91</ele>
        <time>2015-11-10T15:07:58Z</time>
      </trkpt>
      <trkpt lat="43.48228" lon="6.3434">
        <ele>154.43</ele>
        <time>2015-11-10T15:08:12Z</time>
      </trkpt>
      <trkpt lat="43.48229" lon="6.34341">
        <ele>154.43</ele>
        <time>2015-11-10T15:08:33Z</time>
      </trkpt>
      <trkpt lat="43.48227" lon="6.3434">
        <ele>154.91</ele>
        <time>2015-11-10T15:08:50Z</time>
      </trkpt>
      <trkpt lat="43.48228" lon="6.34339">
        <ele>154.43</ele>
        <time>2015-11-10T15:09:17Z</time>
      </trkpt>
      <trkpt lat="43.48228" lon="6.34339">
        <ele>154.43</ele>
        <time>2015-11-10T15:09:46Z</time>
      </trkpt>
      <trkpt lat="43.48229" lon="6.34339">
        <ele>154.43</ele>
        <time>2015-11-10T15:10:01Z</time>
      </trkpt>
      <trkpt lat="43.4823" lon="6.34333">
        <ele>155.39</ele>
        <time>2015-11-10T15:10:14Z</time>
      </trkpt>
      <trkpt lat="43.48232" lon="6.34333">
        <ele>155.39</ele>
        <time>2015-11-10T15:10:33Z</time>
      </trkpt>
      <trkpt lat="43.48234" lon="6.34332">
        <ele>155.39</ele>
        <time>2015-11-10T15:10:53Z</time>
      </trkpt>
      <trkpt lat="43.48234" lon="6.34331">
        <ele>155.39</ele>
        <time>2015-11-10T15:11:15Z</time>
      </trkpt>
      <trkpt lat="43.48234" lon="6.3433">
        <ele>154.91</ele>
        <time>2015-11-10T15:11:38Z</time>
      </trkpt>
      <trkpt lat="43.48233" lon="6.34331">
        <ele>154.91</ele>
        <time>2015-11-10T15:12:02Z</time>
      </trkpt>
      <trkpt lat="43.48233" lon="6.34333">
        <ele>155.39</ele>
        <time>2015-11-10T15:12:24Z</time>
      </trkpt>
      <trkpt lat="43.48234" lon="6.34333">
        <ele>155.39</ele>
        <time>2015-11-10T15:12:51Z</time>
      </trkpt>
      <trkpt lat="43.48234" lon="6.34333">
        <ele>155.39</ele>
        <time>2015-11-10T15:13:14Z</time>
      </trkpt>
      <trkpt lat="43.48233" lon="6.34333">
        <ele>155.39</ele>
        <time>2015-11-10T15:13:48Z</time>
      </trkpt>
      <trkpt lat="43.48234" lon="6.34332">
        <ele>155.87</ele>
        <time>2015-11-10T15:14:15Z</time>
      </trkpt>
      <trkpt lat="43.48233" lon="6.34332">
        <ele>155.39</ele>
        <time>2015-11-10T15:14:33Z</time>
      </trkpt>
      <trkpt lat="43.48233" lon="6.34332">
        <ele>155.87</ele>
        <time>2015-11-10T15:14:59Z</time>
      </trkpt>
      <trkpt lat="43.48233" lon="6.34332">
        <ele>155.87</ele>
        <time>2015-11-10T15:15:20Z</time>
      </trkpt>
      <trkpt lat="43.48234" lon="6.34332">
        <ele>155.87</ele>
        <time>2015-11-10T15:15:43Z</time>
      </trkpt>
      <trkpt lat="43.48236" lon="6.34333">
        <ele>155.87</ele>
        <time>2015-11-10T15:16:02Z</time>
      </trkpt>
      <trkpt lat="43.48236" lon="6.34332">
        <ele>155.39</ele>
        <time>2015-11-10T15:16:07Z</time>
      </trkpt>
      <trkpt lat="43.48233" lon="6.34325">
        <ele>155.87</ele>
        <time>2015-11-10T15:16:28Z</time>
      </trkpt>
      <trkpt lat="43.48236" lon="6.34326">
        <ele>155.87</ele>
        <time>2015-11-10T15:16:47Z</time>
      </trkpt>
      <trkpt lat="43.48239" lon="6.34329">
        <ele>155.87</ele>
        <time>2015-11-10T15:17:07Z</time>
      </trkpt>
      <trkpt lat="43.48231" lon="6.34331">
        <ele>155.87</ele>
        <time>2015-11-10T15:17:29Z</time>
      </trkpt>
      <trkpt lat="43.4823" lon="6.34334">
        <ele>155.87</ele>
        <time>2015-11-10T15:17:53Z</time>
      </trkpt>
      <trkpt lat="43.48228" lon="6.34334">
        <ele>155.87</ele>
        <time>2015-11-10T15:18:21Z</time>
      </trkpt>
      <trkpt lat="43.48228" lon="6.34334">
        <ele>155.87</ele>
        <time>2015-11-10T15:18:43Z</time>
      </trkpt>
      <trkpt lat="43.48229" lon="6.34338">
        <ele>155.39</ele>
        <time>2015-11-10T15:19:02Z</time>
      </trkpt>
      <trkpt lat="43.4823" lon="6.3435">
        <ele>154.91</ele>
        <time>2015-11-10T15:19:13Z</time>
      </trkpt>
      <trkpt lat="43.48237" lon="6.34368">
        <ele>153.95</ele>
        <time>2015-11-10T15:19:27Z</time>
      </trkpt>
      <trkpt lat="43.48235" lon="6.34378">
        <ele>153.47</ele>
        <time>2015-11-10T15:19:35Z</time>
      </trkpt>
      <trkpt lat="43.48228" lon="6.34398">
        <ele>152.03</ele>
        <time>2015-11-10T15:19:50Z</time>
      </trkpt>
      <trkpt lat="43.48218" lon="6.34418">
        <ele>151.54</ele>
        <time>2015-11-10T15:20:05Z</time>
      </trkpt>
      <trkpt lat="43.48216" lon="6.34422">
        <ele>151.54</ele>
        <time>2015-11-10T15:20:08Z</time>
      </trkpt>
      <trkpt lat="43.48217" lon="6.34441">
        <ele>150.58</ele>
        <time>2015-11-10T15:20:20Z</time>
      </trkpt>
      <trkpt lat="43.48213" lon="6.34457">
        <ele>150.1</ele>
        <time>2015-11-10T15:20:35Z</time>
      </trkpt>
      <trkpt lat="43.48215" lon="6.34457">
        <ele>150.1</ele>
        <time>2015-11-10T15:20:47Z</time>
      </trkpt>
      <trkpt lat="43.48216" lon="6.34458">
        <ele>150.1</ele>
        <time>2015-11-10T15:21:06Z</time>
      </trkpt>
      <trkpt lat="43.48217" lon="6.34458">
        <ele>150.1</ele>
        <time>2015-11-10T15:21:30Z</time>
      </trkpt>
      <trkpt lat="43.48217" lon="6.34458">
        <ele>150.1</ele>
        <time>2015-11-10T15:21:49Z</time>
      </trkpt>
      <trkpt lat="43.48217" lon="6.34459">
        <ele>150.1</ele>
        <time>2015-11-10T15:22:12Z</time>
      </trkpt>
      <trkpt lat="43.48217" lon="6.3446">
        <ele>150.1</ele>
        <time>2015-11-10T15:22:34Z</time>
      </trkpt>
      <trkpt lat="43.48217" lon="6.34459">
        <ele>150.1</ele>
        <time>2015-11-10T15:22:52Z</time>
      </trkpt>
      <trkpt lat="43.48217" lon="6.3446">
        <ele>150.1</ele>
        <time>2015-11-10T15:23:03Z</time>
      </trkpt>
    </trkseg>
  </trk>
</gpx>